AFR246 LFPG-RJAA
Flight info
| Callsign | AFR246 |
|---|---|
| Flight time | 13h 15m |
| Altitude | 31000 |
| Route | LANVI DCT BEGAR N491 ZUE Z163 NUNRI T103 BEMKI T23 BIRGI DCT DIPSA DCT BAREB DCT MAVIT DCT TITEK DCT BULEN L744 UDROS UM859 KARDE UN644 ROLIN N644 LAGAS M747 SUBUT T916 PIGAL M610 RULAD A343 POSOT B215 FKG W188 LIKMI W270 DKO W69 HUR B339 LADIX W34 ANRAT A326 DONVO G597 AGAVO Y644 EGOBA G597 LANAT Y51 SAMON Y517 ESKAS Y303 ENTAK Y30 SWAMP |
| Aircraft | B77W/H-SDE2E3FGHIJ1J2J4J5M1RWXY/LB1D1 |
Departure
| Time | 2026-05-04 19:58 |
|---|---|
| Airport | Charles de Gaulle International Airport (LFPG) |
Arrival
| Time | 2026-05-05 09:14 |
|---|---|
| Airport | Narita International Airport (RJAA) |
| Time | Latitude | Longitude | Altitude | Speed | Heading |
|---|---|---|---|---|---|
| 2026-05-04 19:18 | 49.00219 | 2.58618 | 365 ft | 0 kts | 264° |
| 2026-05-04 19:42 | 49.00219 | 2.58622 | 359 ft | 3 kts | 264° |
| 2026-05-04 19:43 | 49.00221 | 2.58657 | 359 ft | 3 kts | 265° |
| 2026-05-04 19:43 | 49.00223 | 2.58693 | 360 ft | 3 kts | 266° |
| 2026-05-04 19:43 | 49.00224 | 2.58725 | 359 ft | 3 kts | 264° |
| 2026-05-04 19:43 | 49.00230 | 2.58758 | 364 ft | 3 kts | 229° |
| 2026-05-04 19:44 | 49.00245 | 2.58770 | 365 ft | 3 kts | 166° |
| 2026-05-04 19:44 | 49.00266 | 2.58758 | 367 ft | 3 kts | 156° |
| 2026-05-04 19:44 | 49.00286 | 2.58747 | 363 ft | 1 kts | 175° |
| 2026-05-04 19:47 | 49.00285 | 2.58747 | 363 ft | 0 kts | 175° |
| 2026-05-04 19:48 | 49.00274 | 2.58749 | 365 ft | 3 kts | 174° |
| 2026-05-04 19:48 | 49.00243 | 2.58753 | 368 ft | 6 kts | 175° |
| 2026-05-04 19:48 | 49.00193 | 2.58759 | 359 ft | 8 kts | 175° |
| 2026-05-04 19:48 | 49.00131 | 2.58767 | 359 ft | 9 kts | 175° |
| 2026-05-04 19:49 | 49.00068 | 2.58771 | 365 ft | 9 kts | 186° |
| 2026-05-04 19:49 | 49.00034 | 2.58699 | 362 ft | 9 kts | 262° |
| 2026-05-04 19:49 | 49.00027 | 2.58599 | 359 ft | 10 kts | 264° |
| 2026-05-04 19:49 | 49.00021 | 2.58491 | 359 ft | 11 kts | 265° |
| 2026-05-04 19:50 | 49.00014 | 2.58363 | 364 ft | 13 kts | 265° |
| 2026-05-04 19:50 | 49.00006 | 2.58201 | 360 ft | 18 kts | 265° |
| 2026-05-04 19:50 | 48.99994 | 2.57996 | 360 ft | 21 kts | 265° |
| 2026-05-04 19:50 | 48.99984 | 2.57778 | 364 ft | 21 kts | 266° |
| 2026-05-04 19:51 | 48.99972 | 2.57561 | 365 ft | 21 kts | 265° |
| 2026-05-04 19:51 | 48.99960 | 2.57342 | 364 ft | 21 kts | 265° |
| 2026-05-04 19:51 | 48.99949 | 2.57125 | 364 ft | 21 kts | 265° |
| 2026-05-04 19:51 | 48.99936 | 2.56907 | 359 ft | 21 kts | 265° |
| 2026-05-04 19:52 | 48.99925 | 2.56691 | 364 ft | 21 kts | 266° |
| 2026-05-04 19:52 | 48.99914 | 2.56483 | 365 ft | 16 kts | 265° |
| 2026-05-04 19:52 | 48.99905 | 2.56316 | 362 ft | 16 kts | 265° |
| 2026-05-04 19:52 | 48.99896 | 2.56149 | 359 ft | 16 kts | 265° |
| 2026-05-04 19:53 | 48.99888 | 2.56008 | 363 ft | 11 kts | 265° |
| 2026-05-04 19:53 | 48.99894 | 2.55921 | 361 ft | 4 kts | 281° |
| 2026-05-04 19:53 | 48.99896 | 2.55910 | 359 ft | 0 kts | 281° |
| 2026-05-04 19:54 | 48.99896 | 2.55909 | 359 ft | 0 kts | 281° |
| 2026-05-04 19:54 | 48.99899 | 2.55889 | 361 ft | 4 kts | 281° |
| 2026-05-04 19:54 | 48.99903 | 2.55832 | 362 ft | 7 kts | 259° |
| 2026-05-04 19:54 | 48.99861 | 2.55801 | 364 ft | 9 kts | 183° |
| 2026-05-04 19:55 | 48.99801 | 2.55801 | 366 ft | 9 kts | 179° |
| 2026-05-04 19:55 | 48.99744 | 2.55805 | 362 ft | 7 kts | 175° |
| 2026-05-04 19:55 | 48.99716 | 2.55811 | 360 ft | 3 kts | 172° |
| 2026-05-04 19:55 | 48.99697 | 2.55814 | 361 ft | 3 kts | 172° |
| 2026-05-04 19:56 | 48.99668 | 2.55820 | 365 ft | 6 kts | 172° |
| 2026-05-04 19:56 | 48.99626 | 2.55831 | 364 ft | 6 kts | 166° |
| 2026-05-04 19:56 | 48.99605 | 2.55885 | 365 ft | 6 kts | 96° |
| 2026-05-04 19:56 | 48.99605 | 2.55924 | 361 ft | 0 kts | 87° |
| 2026-05-04 19:57 | 48.99605 | 2.55925 | 361 ft | 1 kts | 87° |
| 2026-05-04 19:57 | 48.99610 | 2.56050 | 359 ft | 26 kts | 85° |
| 2026-05-04 19:58 | 48.99645 | 2.56704 | 360 ft | 100 kts | 85° |
| 2026-05-04 19:58 | 48.99722 | 2.58123 | 364 ft | 167 kts | 85° |
| 2026-05-04 19:58 | 48.99831 | 2.60170 | 410 ft | 212 kts | 84° |
| 2026-05-04 19:58 | 48.99949 | 2.62373 | 1113 ft | 208 kts | 85° |
| 2026-05-04 19:59 | 49.00071 | 2.64606 | 1828 ft | 213 kts | 85° |
| 2026-05-04 19:59 | 49.00195 | 2.66867 | 2463 ft | 215 kts | 85° |
| 2026-05-04 19:59 | 49.00321 | 2.69155 | 2971 ft | 218 kts | 85° |
| 2026-05-04 19:59 | 49.00441 | 2.71466 | 3487 ft | 221 kts | 85° |
| 2026-05-04 20:00 | 49.00561 | 2.73893 | 3710 ft | 240 kts | 85° |
| 2026-05-04 20:00 | 49.00690 | 2.76471 | 4132 ft | 249 kts | 85° |
| 2026-05-04 20:00 | 49.00692 | 2.79197 | 4404 ft | 263 kts | 97° |
| 2026-05-04 20:00 | 49.00390 | 2.81985 | 4955 ft | 270 kts | 101° |
| 2026-05-04 20:01 | 49.00045 | 2.84806 | 5687 ft | 270 kts | 100° |
| 2026-05-04 20:01 | 48.99722 | 2.87624 | 6428 ft | 270 kts | 99° |
| 2026-05-04 20:01 | 48.99414 | 2.90460 | 7033 ft | 273 kts | 99° |
| 2026-05-04 20:01 | 48.99108 | 2.93337 | 7613 ft | 277 kts | 99° |
| 2026-05-04 20:02 | 48.98808 | 2.96212 | 8226 ft | 279 kts | 98° |
| 2026-05-04 20:02 | 48.98547 | 2.99154 | 8844 ft | 282 kts | 98° |
| 2026-05-04 20:02 | 48.98302 | 3.02133 | 9442 ft | 285 kts | 97° |
| 2026-05-04 20:02 | 48.98056 | 3.05148 | 10021 ft | 288 kts | 97° |
| 2026-05-04 20:03 | 48.97804 | 3.08209 | 10433 ft | 298 kts | 98° |
| 2026-05-04 20:03 | 48.97536 | 3.11448 | 10571 ft | 318 kts | 98° |
| 2026-05-04 20:03 | 48.97248 | 3.14889 | 10735 ft | 338 kts | 98° |
| 2026-05-04 20:03 | 48.96941 | 3.18538 | 10902 ft | 358 kts | 98° |
| 2026-05-04 20:04 | 48.96617 | 3.22370 | 11268 ft | 370 kts | 98° |
| 2026-05-04 20:04 | 48.96283 | 3.26307 | 11806 ft | 378 kts | 98° |
| 2026-05-04 20:04 | 48.95888 | 3.30041 | 12444 ft | 382 kts | 103° |
| 2026-05-04 20:04 | 48.95105 | 3.33910 | 13153 ft | 385 kts | 111° |
| 2026-05-04 20:05 | 48.94151 | 3.37677 | 13855 ft | 388 kts | 111° |
| 2026-05-04 20:05 | 48.93179 | 3.41521 | 14452 ft | 392 kts | 111° |
| 2026-05-04 20:05 | 48.92197 | 3.45423 | 15055 ft | 396 kts | 111° |
| 2026-05-04 20:05 | 48.91210 | 3.49356 | 15654 ft | 400 kts | 111° |
| 2026-05-04 20:06 | 48.90216 | 3.53335 | 16219 ft | 406 kts | 112° |
| 2026-05-04 20:06 | 48.89204 | 3.57393 | 16784 ft | 410 kts | 112° |
| 2026-05-04 20:06 | 48.88190 | 3.61458 | 17410 ft | 414 kts | 112° |
| 2026-05-04 20:06 | 48.87167 | 3.65561 | 18035 ft | 417 kts | 112° |
| 2026-05-04 20:07 | 48.86135 | 3.69695 | 18579 ft | 421 kts | 112° |
| 2026-05-04 20:07 | 48.85089 | 3.73877 | 19105 ft | 424 kts | 112° |
| 2026-05-04 20:07 | 48.84037 | 3.78076 | 19660 ft | 427 kts | 112° |
| 2026-05-04 20:07 | 48.82977 | 3.82300 | 20169 ft | 430 kts | 112° |
| 2026-05-04 20:08 | 48.81920 | 3.86509 | 20672 ft | 434 kts | 112° |
| 2026-05-04 20:08 | 48.80840 | 3.90795 | 21174 ft | 437 kts | 113° |
| 2026-05-04 20:08 | 48.79747 | 3.95126 | 21673 ft | 440 kts | 113° |
| 2026-05-04 20:08 | 48.78649 | 3.99468 | 22175 ft | 444 kts | 113° |
| 2026-05-04 20:09 | 48.77537 | 4.03856 | 22660 ft | 447 kts | 113° |
| 2026-05-04 20:09 | 48.76417 | 4.08268 | 23135 ft | 450 kts | 113° |
| 2026-05-04 20:09 | 48.75413 | 4.12218 | 23544 ft | 453 kts | 113° |
| 2026-05-04 20:09 | 48.74295 | 4.16603 | 23936 ft | 456 kts | 114° |
| 2026-05-04 20:10 | 48.73337 | 4.20355 | 24273 ft | 458 kts | 114° |
| 2026-05-04 20:10 | 48.72150 | 4.25009 | 24693 ft | 460 kts | 114° |
| 2026-05-04 20:10 | 48.70995 | 4.29538 | 25089 ft | 462 kts | 114° |
| 2026-05-04 20:10 | 48.69832 | 4.34087 | 25461 ft | 465 kts | 114° |
| 2026-05-04 20:11 | 48.68834 | 4.38045 | 25768 ft | 468 kts | 113° |
| 2026-05-04 20:11 | 48.67744 | 4.42696 | 26124 ft | 471 kts | 112° |
| 2026-05-04 20:11 | 48.66687 | 4.47407 | 26487 ft | 473 kts | 112° |
| 2026-05-04 20:11 | 48.65638 | 4.52138 | 26850 ft | 476 kts | 112° |
| 2026-05-04 20:12 | 48.64580 | 4.56896 | 27205 ft | 478 kts | 112° |
| 2026-05-04 20:12 | 48.63508 | 4.61670 | 27552 ft | 480 kts | 112° |
| 2026-05-04 20:12 | 48.62423 | 4.66449 | 27890 ft | 482 kts | 112° |
| 2026-05-04 20:12 | 48.61338 | 4.71196 | 28213 ft | 484 kts | 113° |
| 2026-05-04 20:13 | 48.60229 | 4.76017 | 28516 ft | 486 kts | 113° |
| 2026-05-04 20:13 | 48.59114 | 4.80846 | 28793 ft | 488 kts | 113° |
| 2026-05-04 20:13 | 48.57989 | 4.85703 | 29084 ft | 490 kts | 113° |
| 2026-05-04 20:13 | 48.56862 | 4.90558 | 29380 ft | 491 kts | 113° |
| 2026-05-04 20:14 | 48.55732 | 4.95423 | 29757 ft | 491 kts | 114° |
| 2026-05-04 20:14 | 48.54602 | 5.00275 | 30151 ft | 489 kts | 114° |
| 2026-05-04 20:14 | 48.53472 | 5.05121 | 30506 ft | 487 kts | 113° |
| 2026-05-04 20:14 | 48.52349 | 5.09927 | 30845 ft | 486 kts | 113° |
| 2026-05-04 20:15 | 48.51229 | 5.14701 | 30916 ft | 490 kts | 114° |
| 2026-05-04 20:15 | 48.48950 | 5.24386 | 30956 ft | 488 kts | 114° |
| 2026-05-04 20:16 | 48.46689 | 5.33965 | 30957 ft | 484 kts | 114° |
| 2026-05-04 20:16 | 48.44420 | 5.43520 | 30970 ft | 484 kts | 114° |
| 2026-05-04 20:17 | 48.42147 | 5.53055 | 30984 ft | 484 kts | 114° |
| 2026-05-04 20:17 | 48.39873 | 5.62552 | 30968 ft | 484 kts | 114° |
| 2026-05-04 20:18 | 48.37582 | 5.72078 | 30984 ft | 484 kts | 114° |
| 2026-05-04 20:18 | 48.35281 | 5.81609 | 30988 ft | 484 kts | 114° |
| 2026-05-04 20:19 | 48.32973 | 5.91127 | 30996 ft | 484 kts | 115° |
| 2026-05-04 20:19 | 48.30657 | 6.00633 | 30993 ft | 484 kts | 115° |
| 2026-05-04 20:20 | 48.28339 | 6.10111 | 30986 ft | 482 kts | 115° |
| 2026-05-04 20:20 | 48.26019 | 6.19560 | 30990 ft | 481 kts | 115° |
| 2026-05-04 20:21 | 48.23708 | 6.28929 | 30991 ft | 481 kts | 115° |
| 2026-05-04 20:21 | 48.20208 | 6.43033 | 30967 ft | 481 kts | 115° |
| 2026-05-04 20:22 | 48.17868 | 6.52421 | 30983 ft | 481 kts | 115° |
| 2026-05-04 20:22 | 48.15520 | 6.61800 | 31005 ft | 481 kts | 115° |
| 2026-05-04 20:23 | 48.13163 | 6.71176 | 31002 ft | 481 kts | 115° |
| 2026-05-04 20:23 | 48.10792 | 6.80568 | 30980 ft | 482 kts | 115° |
| 2026-05-04 20:24 | 48.08419 | 6.89934 | 30993 ft | 481 kts | 115° |
| 2026-05-04 20:24 | 48.06050 | 6.99242 | 31007 ft | 482 kts | 115° |
| 2026-05-04 20:25 | 48.03661 | 7.08592 | 31010 ft | 480 kts | 115° |
| 2026-05-04 20:25 | 48.01262 | 7.17941 | 30999 ft | 481 kts | 116° |
| 2026-05-04 20:26 | 47.98857 | 7.27276 | 30965 ft | 482 kts | 116° |
| 2026-05-04 20:26 | 47.96601 | 7.36001 | 30990 ft | 483 kts | 116° |
| 2026-05-04 20:27 | 47.94185 | 7.45310 | 31004 ft | 485 kts | 116° |
| 2026-05-04 20:27 | 47.91741 | 7.54695 | 30995 ft | 486 kts | 116° |
| 2026-05-04 20:28 | 47.89285 | 7.64107 | 30985 ft | 487 kts | 116° |
| 2026-05-04 20:28 | 47.86847 | 7.73509 | 30996 ft | 487 kts | 116° |
| 2026-05-04 20:29 | 47.84796 | 7.81393 | 31005 ft | 487 kts | 116° |
| 2026-05-04 20:29 | 47.82357 | 7.90734 | 31000 ft | 487 kts | 116° |
| 2026-05-04 20:30 | 47.79890 | 8.00137 | 30995 ft | 487 kts | 116° |
| 2026-05-04 20:30 | 47.77428 | 8.09508 | 31002 ft | 486 kts | 115° |
| 2026-05-04 20:31 | 47.75095 | 8.18947 | 31001 ft | 486 kts | 114° |
| 2026-05-04 20:31 | 47.72796 | 8.28383 | 31001 ft | 486 kts | 115° |
| 2026-05-04 20:32 | 47.70464 | 8.37817 | 30990 ft | 486 kts | 115° |
| 2026-05-04 20:32 | 47.68126 | 8.47166 | 31000 ft | 485 kts | 115° |
| 2026-05-04 20:33 | 47.65717 | 8.56545 | 31014 ft | 486 kts | 115° |
| 2026-05-04 20:33 | 47.63301 | 8.65919 | 31009 ft | 487 kts | 115° |
| 2026-05-04 20:34 | 47.60893 | 8.75307 | 31012 ft | 488 kts | 113° |
| 2026-05-04 20:34 | 47.59346 | 8.85122 | 30992 ft | 495 kts | 101° |
| 2026-05-04 20:35 | 47.59031 | 8.95365 | 31007 ft | 499 kts | 93° |
| 2026-05-04 20:35 | 47.59051 | 9.05657 | 30988 ft | 500 kts | 93° |
| 2026-05-04 20:36 | 47.59022 | 9.15951 | 30975 ft | 500 kts | 94° |
| 2026-05-04 20:36 | 47.58951 | 9.26252 | 30959 ft | 500 kts | 94° |
| 2026-05-04 20:37 | 47.58871 | 9.36536 | 30967 ft | 499 kts | 94° |
| 2026-05-04 20:37 | 47.58786 | 9.46794 | 30965 ft | 498 kts | 94° |
| 2026-05-04 20:38 | 47.58740 | 9.57050 | 30967 ft | 497 kts | 93° |
| 2026-05-04 20:38 | 47.58684 | 9.67213 | 30952 ft | 496 kts | 94° |
| 2026-05-04 20:39 | 47.58309 | 9.77404 | 30963 ft | 494 kts | 97° |
| 2026-05-04 20:39 | 47.57806 | 9.87547 | 30968 ft | 493 kts | 97° |
| 2026-05-04 20:40 | 47.57349 | 9.97678 | 30976 ft | 492 kts | 97° |
| 2026-05-04 20:40 | 47.56913 | 10.07797 | 30989 ft | 492 kts | 97° |
| 2026-05-04 20:41 | 47.56472 | 10.17917 | 30990 ft | 492 kts | 96° |
| 2026-05-04 20:41 | 47.55983 | 10.28028 | 30986 ft | 491 kts | 99° |
| 2026-05-04 20:42 | 47.54573 | 10.37848 | 30992 ft | 486 kts | 110° |
| 2026-05-04 20:42 | 47.52606 | 10.47363 | 30994 ft | 486 kts | 110° |
| 2026-05-04 20:43 | 47.50677 | 10.56952 | 31010 ft | 486 kts | 109° |
| 2026-05-04 20:43 | 47.48769 | 10.66559 | 31014 ft | 486 kts | 109° |
| 2026-05-04 20:44 | 47.46875 | 10.76144 | 31030 ft | 485 kts | 106° |
| 2026-05-04 20:44 | 47.45576 | 10.85973 | 31029 ft | 486 kts | 102° |
| 2026-05-04 20:45 | 47.44389 | 10.95742 | 31030 ft | 485 kts | 102° |
| 2026-05-04 20:45 | 47.43164 | 11.05551 | 30977 ft | 485 kts | 102° |
| 2026-05-04 20:46 | 47.41914 | 11.15338 | 30957 ft | 484 kts | 102° |
| 2026-05-04 20:46 | 47.40655 | 11.25115 | 30983 ft | 485 kts | 103° |
| 2026-05-04 20:47 | 47.39386 | 11.34919 | 30990 ft | 487 kts | 102° |
| 2026-05-04 20:47 | 47.38301 | 11.44768 | 30993 ft | 491 kts | 98° |
| 2026-05-04 20:48 | 47.37581 | 11.54796 | 30986 ft | 492 kts | 98° |
| 2026-05-04 20:48 | 47.36836 | 11.64855 | 30972 ft | 492 kts | 98° |
| 2026-05-04 20:49 | 47.36065 | 11.74879 | 30954 ft | 492 kts | 98° |
| 2026-05-04 20:49 | 47.35323 | 11.84931 | 30959 ft | 493 kts | 98° |
| 2026-05-04 20:50 | 47.34255 | 11.94897 | 30964 ft | 491 kts | 107° |
| 2026-05-04 20:50 | 47.32111 | 12.04372 | 30976 ft | 490 kts | 112° |
| 2026-05-04 20:51 | 47.29848 | 12.13869 | 30971 ft | 491 kts | 111° |
| 2026-05-04 20:51 | 47.27611 | 12.23376 | 30977 ft | 491 kts | 111° |
| 2026-05-04 20:52 | 47.25379 | 12.32918 | 30976 ft | 491 kts | 111° |
| 2026-05-04 20:52 | 47.23163 | 12.42371 | 30970 ft | 491 kts | 111° |
| 2026-05-04 20:53 | 47.20927 | 12.51864 | 30956 ft | 490 kts | 111° |
| 2026-05-04 20:53 | 47.18692 | 12.61308 | 30991 ft | 489 kts | 111° |
| 2026-05-04 20:54 | 47.16451 | 12.70743 | 30994 ft | 489 kts | 111° |
| 2026-05-04 20:54 | 47.14194 | 12.80190 | 31003 ft | 489 kts | 112° |
| 2026-05-04 20:55 | 47.11939 | 12.89581 | 30996 ft | 491 kts | 111° |
| 2026-05-04 20:55 | 47.09659 | 12.99051 | 30999 ft | 491 kts | 112° |
| 2026-05-04 20:56 | 47.07373 | 13.08503 | 31007 ft | 492 kts | 112° |
| 2026-05-04 20:56 | 47.05077 | 13.17959 | 31022 ft | 492 kts | 112° |
| 2026-05-04 20:57 | 47.02770 | 13.27419 | 31022 ft | 492 kts | 112° |
| 2026-05-04 20:57 | 47.00461 | 13.36852 | 31024 ft | 490 kts | 112° |
| 2026-05-04 20:58 | 46.98151 | 13.46239 | 31040 ft | 489 kts | 112° |
| 2026-05-04 20:58 | 46.95849 | 13.55556 | 31043 ft | 488 kts | 112° |
| 2026-05-04 20:59 | 46.93537 | 13.64877 | 31033 ft | 487 kts | 112° |
| 2026-05-04 20:59 | 46.91208 | 13.74223 | 31035 ft | 488 kts | 112° |
| 2026-05-04 21:00 | 46.88888 | 13.83499 | 31032 ft | 489 kts | 112° |
| 2026-05-04 21:00 | 46.86534 | 13.92874 | 31039 ft | 491 kts | 112° |
| 2026-05-04 21:01 | 46.84169 | 14.02257 | 31030 ft | 493 kts | 112° |
| 2026-05-04 21:01 | 46.81783 | 14.11681 | 31054 ft | 494 kts | 112° |
| 2026-05-04 21:02 | 46.79407 | 14.21029 | 31045 ft | 495 kts | 112° |
| 2026-05-04 21:02 | 46.77002 | 14.30449 | 31040 ft | 495 kts | 112° |
| 2026-05-04 21:03 | 46.74592 | 14.39852 | 31035 ft | 495 kts | 112° |
| 2026-05-04 21:03 | 46.72172 | 14.49256 | 31055 ft | 495 kts | 112° |
| 2026-05-04 21:04 | 46.69741 | 14.58663 | 31053 ft | 495 kts | 112° |
| 2026-05-04 21:04 | 46.67322 | 14.67988 | 31037 ft | 495 kts | 112° |
| 2026-05-04 21:05 | 46.64879 | 14.77370 | 31029 ft | 495 kts | 112° |
| 2026-05-04 21:05 | 46.62436 | 14.86721 | 31041 ft | 494 kts | 112° |
| 2026-05-04 21:06 | 46.60017 | 14.96073 | 31039 ft | 493 kts | 110° |
| 2026-05-04 21:06 | 46.57834 | 15.05544 | 31036 ft | 494 kts | 109° |
| 2026-05-04 21:07 | 46.55725 | 15.14971 | 31024 ft | 494 kts | 109° |
| 2026-05-04 21:07 | 46.53558 | 15.24472 | 31025 ft | 495 kts | 109° |
| 2026-05-04 21:08 | 46.51361 | 15.33948 | 31024 ft | 496 kts | 110° |
| 2026-05-04 21:08 | 46.49138 | 15.43453 | 31026 ft | 496 kts | 110° |
| 2026-05-04 21:09 | 46.46926 | 15.52872 | 31027 ft | 496 kts | 109° |
| 2026-05-04 21:09 | 46.44697 | 15.62330 | 31019 ft | 495 kts | 110° |
| 2026-05-04 21:10 | 46.42469 | 15.71753 | 31017 ft | 493 kts | 110° |
| 2026-05-04 21:10 | 46.40236 | 15.81151 | 31013 ft | 492 kts | 110° |
| 2026-05-04 21:11 | 46.37998 | 15.90530 | 31015 ft | 491 kts | 110° |
| 2026-05-04 21:11 | 46.35759 | 15.99873 | 31017 ft | 491 kts | 110° |
| 2026-05-04 21:12 | 46.33526 | 16.09155 | 31018 ft | 492 kts | 110° |
| 2026-05-04 21:12 | 46.31264 | 16.18515 | 31018 ft | 492 kts | 110° |
| 2026-05-04 21:13 | 46.28999 | 16.27850 | 31019 ft | 493 kts | 110° |
| 2026-05-04 21:13 | 46.26719 | 16.37208 | 31026 ft | 493 kts | 110° |
| 2026-05-04 21:14 | 46.24817 | 16.44983 | 31025 ft | 494 kts | 110° |
| 2026-05-04 21:14 | 46.22521 | 16.54335 | 31027 ft | 494 kts | 110° |
| 2026-05-04 21:15 | 46.19838 | 16.65210 | 31028 ft | 494 kts | 110° |
| 2026-05-04 21:15 | 46.17899 | 16.73044 | 31029 ft | 495 kts | 110° |
| 2026-05-04 21:16 | 46.15574 | 16.82395 | 31030 ft | 494 kts | 110° |
| 2026-05-04 21:16 | 46.13258 | 16.91672 | 31027 ft | 494 kts | 110° |
| 2026-05-04 21:17 | 46.10923 | 17.00988 | 31028 ft | 494 kts | 109° |
| 2026-05-04 21:17 | 46.08582 | 17.10291 | 31023 ft | 494 kts | 110° |
| 2026-05-04 21:18 | 46.06233 | 17.19586 | 31029 ft | 494 kts | 110° |
| 2026-05-04 21:18 | 46.03873 | 17.28889 | 31027 ft | 494 kts | 110° |
| 2026-05-04 21:19 | 46.01506 | 17.38181 | 31028 ft | 495 kts | 109° |
| 2026-05-04 21:19 | 45.99126 | 17.47485 | 31028 ft | 495 kts | 110° |
| 2026-05-04 21:20 | 45.96739 | 17.56780 | 31033 ft | 496 kts | 110° |
| 2026-05-04 21:20 | 45.94344 | 17.66070 | 31042 ft | 496 kts | 109° |
| 2026-05-04 21:21 | 45.91946 | 17.75335 | 31036 ft | 497 kts | 110° |
| 2026-05-04 21:21 | 45.89529 | 17.84633 | 31046 ft | 497 kts | 110° |
| 2026-05-04 21:22 | 45.87101 | 17.93942 | 31056 ft | 498 kts | 110° |
| 2026-05-04 21:22 | 45.84663 | 18.03248 | 31069 ft | 498 kts | 110° |
| 2026-05-04 21:23 | 45.82236 | 18.12477 | 31065 ft | 498 kts | 110° |
| 2026-05-04 21:23 | 45.79786 | 18.21761 | 31066 ft | 498 kts | 110° |
| 2026-05-04 21:24 | 45.77330 | 18.31034 | 31061 ft | 498 kts | 110° |
| 2026-05-04 21:24 | 45.74881 | 18.40310 | 31068 ft | 497 kts | 108° |
| 2026-05-04 21:25 | 45.73131 | 18.49840 | 31069 ft | 494 kts | 101° |
| 2026-05-04 21:25 | 45.71629 | 18.59437 | 31058 ft | 494 kts | 101° |
| 2026-05-04 21:26 | 45.70096 | 18.69026 | 31046 ft | 493 kts | 102° |
| 2026-05-04 21:26 | 45.68537 | 18.78582 | 31056 ft | 493 kts | 102° |
| 2026-05-04 21:27 | 45.66972 | 18.88068 | 31049 ft | 493 kts | 102° |
| 2026-05-04 21:27 | 45.65391 | 18.97605 | 31051 ft | 492 kts | 102° |
| 2026-05-04 21:28 | 45.63806 | 19.07118 | 31051 ft | 492 kts | 102° |
| 2026-05-04 21:28 | 45.62212 | 19.16633 | 31064 ft | 492 kts | 102° |
| 2026-05-04 21:29 | 45.60612 | 19.26132 | 31065 ft | 492 kts | 102° |
| 2026-05-04 21:29 | 45.59005 | 19.35622 | 31059 ft | 492 kts | 102° |
| 2026-05-04 21:30 | 45.57389 | 19.45115 | 31066 ft | 492 kts | 102° |
| 2026-05-04 21:30 | 45.55768 | 19.54581 | 31067 ft | 492 kts | 102° |
| 2026-05-04 21:31 | 45.53319 | 19.68791 | 31071 ft | 492 kts | 102° |
| 2026-05-04 21:32 | 45.51687 | 19.78199 | 31072 ft | 492 kts | 102° |
| 2026-05-04 21:32 | 45.50034 | 19.87674 | 31081 ft | 492 kts | 102° |
| 2026-05-04 21:33 | 45.48375 | 19.97138 | 31072 ft | 492 kts | 102° |
| 2026-05-04 21:33 | 45.46704 | 20.06617 | 31072 ft | 492 kts | 102° |
| 2026-05-04 21:34 | 45.45029 | 20.16067 | 31070 ft | 492 kts | 102° |
| 2026-05-04 21:34 | 45.43354 | 20.25467 | 31081 ft | 492 kts | 102° |
| 2026-05-04 21:35 | 45.41663 | 20.34912 | 31073 ft | 492 kts | 102° |
| 2026-05-04 21:35 | 45.39968 | 20.44333 | 31070 ft | 491 kts | 102° |
| 2026-05-04 21:36 | 45.38263 | 20.53752 | 31069 ft | 491 kts | 102° |
| 2026-05-04 21:36 | 45.36560 | 20.63119 | 31081 ft | 491 kts | 102° |
| 2026-05-04 21:37 | 45.34843 | 20.72515 | 31071 ft | 490 kts | 102° |
| 2026-05-04 21:37 | 45.33122 | 20.81883 | 31075 ft | 490 kts | 102° |
| 2026-05-04 21:38 | 45.31393 | 20.91248 | 31079 ft | 489 kts | 102° |
| 2026-05-04 21:38 | 45.29660 | 21.00591 | 31086 ft | 489 kts | 101° |
| 2026-05-04 21:39 | 45.27927 | 21.09886 | 31080 ft | 489 kts | 102° |
| 2026-05-04 21:39 | 45.26180 | 21.19220 | 31078 ft | 489 kts | 102° |
| 2026-05-04 21:40 | 45.24417 | 21.28554 | 31076 ft | 489 kts | 103° |
| 2026-05-04 21:40 | 45.21963 | 21.37586 | 31087 ft | 493 kts | 111° |
| 2026-05-04 21:41 | 45.19111 | 21.46366 | 31084 ft | 493 kts | 111° |
| 2026-05-04 21:41 | 45.16249 | 21.55216 | 31084 ft | 493 kts | 111° |
| 2026-05-04 21:42 | 45.13419 | 21.64051 | 31120 ft | 492 kts | 111° |
| 2026-05-04 21:42 | 45.10591 | 21.72888 | 31099 ft | 492 kts | 111° |
| 2026-05-04 21:43 | 45.07783 | 21.81640 | 31099 ft | 491 kts | 111° |
| 2026-05-04 21:43 | 45.04945 | 21.90443 | 31126 ft | 491 kts | 111° |
| 2026-05-04 21:44 | 45.02106 | 21.99222 | 31123 ft | 491 kts | 111° |
| 2026-05-04 21:44 | 44.99256 | 22.08004 | 31111 ft | 490 kts | 111° |
| 2026-05-04 21:45 | 44.96424 | 22.16701 | 31121 ft | 490 kts | 112° |
| 2026-05-04 21:45 | 44.93561 | 22.25463 | 31116 ft | 491 kts | 112° |
| 2026-05-04 21:46 | 44.90691 | 22.34219 | 31110 ft | 491 kts | 112° |
| 2026-05-04 21:46 | 44.87816 | 22.42959 | 31105 ft | 491 kts | 112° |
| 2026-05-04 21:47 | 44.84954 | 22.51632 | 31093 ft | 491 kts | 112° |
| 2026-05-04 21:47 | 44.82068 | 22.60350 | 31095 ft | 491 kts | 112° |
| 2026-05-04 21:48 | 44.79166 | 22.69089 | 31075 ft | 492 kts | 112° |
| 2026-05-04 21:48 | 44.76260 | 22.77808 | 31082 ft | 491 kts | 112° |
| 2026-05-04 21:49 | 44.73351 | 22.86509 | 31078 ft | 491 kts | 112° |
| 2026-05-04 21:49 | 44.70434 | 22.95204 | 31072 ft | 492 kts | 112° |
| 2026-05-04 21:50 | 44.67527 | 23.03844 | 31073 ft | 492 kts | 113° |
| 2026-05-04 21:50 | 44.64588 | 23.12547 | 31059 ft | 492 kts | 113° |
| 2026-05-04 21:51 | 44.61645 | 23.21235 | 31062 ft | 492 kts | 113° |
| 2026-05-04 21:51 | 44.58698 | 23.29910 | 31073 ft | 492 kts | 113° |
| 2026-05-04 21:52 | 44.55749 | 23.38563 | 31078 ft | 492 kts | 113° |
| 2026-05-04 21:52 | 44.52815 | 23.47146 | 31075 ft | 491 kts | 113° |
| 2026-05-04 21:53 | 44.49858 | 23.55769 | 31076 ft | 491 kts | 114° |
| 2026-05-04 21:53 | 44.46978 | 23.64445 | 31065 ft | 490 kts | 112° |
| 2026-05-04 21:54 | 44.44225 | 23.73171 | 31056 ft | 489 kts | 112° |
| 2026-05-04 21:54 | 44.41490 | 23.81829 | 31046 ft | 489 kts | 112° |
| 2026-05-04 21:55 | 44.38709 | 23.90535 | 31047 ft | 491 kts | 114° |
| 2026-05-04 21:55 | 44.35899 | 23.99262 | 31055 ft | 494 kts | 114° |
| 2026-05-04 21:56 | 44.33064 | 24.08030 | 31061 ft | 497 kts | 114° |
| 2026-05-04 21:56 | 44.30209 | 24.16834 | 31065 ft | 498 kts | 114° |
| 2026-05-04 21:57 | 44.27340 | 24.25659 | 31068 ft | 500 kts | 115° |
| 2026-05-04 21:57 | 44.24455 | 24.34497 | 31073 ft | 501 kts | 115° |
| 2026-05-04 21:58 | 44.21560 | 24.43339 | 31066 ft | 501 kts | 115° |
| 2026-05-04 21:58 | 44.18677 | 24.52118 | 31070 ft | 500 kts | 115° |
| 2026-05-04 21:59 | 44.15772 | 24.60932 | 31065 ft | 500 kts | 116° |
| 2026-05-04 21:59 | 44.12882 | 24.69669 | 31069 ft | 499 kts | 116° |
| 2026-05-04 22:00 | 44.09969 | 24.78451 | 31066 ft | 499 kts | 116° |
| 2026-05-04 22:00 | 44.07057 | 24.87200 | 31074 ft | 499 kts | 116° |
| 2026-05-04 22:01 | 44.04136 | 24.95948 | 31070 ft | 499 kts | 116° |
| 2026-05-04 22:01 | 44.01691 | 25.03246 | 31066 ft | 499 kts | 116° |
| 2026-05-04 22:02 | 43.98273 | 25.13419 | 31069 ft | 499 kts | 115° |
| 2026-05-04 22:02 | 43.95831 | 25.20663 | 31066 ft | 499 kts | 116° |
| 2026-05-04 22:03 | 43.92885 | 25.29377 | 31062 ft | 499 kts | 116° |
| 2026-05-04 22:03 | 43.89932 | 25.38082 | 31063 ft | 499 kts | 116° |
| 2026-05-04 22:04 | 43.86966 | 25.46799 | 31061 ft | 499 kts | 115° |
| 2026-05-04 22:04 | 43.83995 | 25.55503 | 31059 ft | 499 kts | 115° |
| 2026-05-04 22:05 | 43.81020 | 25.64193 | 31058 ft | 499 kts | 115° |
| 2026-05-04 22:05 | 43.78058 | 25.72821 | 31057 ft | 500 kts | 115° |
| 2026-05-04 22:06 | 43.75080 | 25.81520 | 31062 ft | 499 kts | 113° |
| 2026-05-04 22:06 | 43.72703 | 25.90530 | 31066 ft | 499 kts | 108° |
| 2026-05-04 22:07 | 43.70469 | 25.99607 | 31060 ft | 499 kts | 108° |
| 2026-05-04 22:07 | 43.68202 | 26.08674 | 31060 ft | 498 kts | 109° |
| 2026-05-04 22:08 | 43.65924 | 26.17661 | 31059 ft | 498 kts | 109° |
| 2026-05-04 22:08 | 43.63624 | 26.26687 | 31060 ft | 498 kts | 109° |
| 2026-05-04 22:09 | 43.61315 | 26.35716 | 31057 ft | 498 kts | 109° |
| 2026-05-04 22:09 | 43.58997 | 26.44745 | 31067 ft | 498 kts | 108° |
| 2026-05-04 22:10 | 43.56682 | 26.53740 | 31060 ft | 497 kts | 108° |
| 2026-05-04 22:10 | 43.54361 | 26.62719 | 31064 ft | 497 kts | 108° |
| 2026-05-04 22:11 | 43.52033 | 26.71692 | 31080 ft | 496 kts | 108° |
| 2026-05-04 22:11 | 43.49718 | 26.80586 | 31075 ft | 496 kts | 108° |
| 2026-05-04 22:12 | 43.47365 | 26.89591 | 31070 ft | 496 kts | 108° |
| 2026-05-04 22:12 | 43.45048 | 26.98495 | 31073 ft | 496 kts | 108° |
| 2026-05-04 22:13 | 43.42722 | 27.07444 | 31085 ft | 496 kts | 108° |
| 2026-05-04 22:13 | 43.40398 | 27.16349 | 31081 ft | 496 kts | 108° |
| 2026-05-04 22:14 | 43.38056 | 27.25277 | 31076 ft | 497 kts | 108° |
| 2026-05-04 22:14 | 43.35707 | 27.34214 | 31079 ft | 497 kts | 108° |
| 2026-05-04 22:15 | 43.33357 | 27.43130 | 31076 ft | 496 kts | 108° |
| 2026-05-04 22:15 | 43.31017 | 27.51982 | 31077 ft | 495 kts | 108° |
| 2026-05-04 22:16 | 43.28664 | 27.60850 | 31076 ft | 494 kts | 108° |
| 2026-05-04 22:16 | 43.26305 | 27.69709 | 31084 ft | 493 kts | 108° |
| 2026-05-04 22:17 | 43.23946 | 27.78538 | 31075 ft | 492 kts | 108° |
| 2026-05-04 22:17 | 43.22011 | 27.87494 | 31080 ft | 488 kts | 101° |
| 2026-05-04 22:18 | 43.20497 | 27.96554 | 31073 ft | 487 kts | 101° |
| 2026-05-04 22:18 | 43.18966 | 28.05557 | 31083 ft | 487 kts | 100° |
| 2026-05-04 22:19 | 43.17396 | 28.14582 | 31061 ft | 487 kts | 101° |
| 2026-05-04 22:19 | 43.15813 | 28.23596 | 31057 ft | 486 kts | 101° |
| 2026-05-04 22:20 | 43.14235 | 28.32550 | 31060 ft | 486 kts | 101° |
| 2026-05-04 22:20 | 43.12645 | 28.41535 | 31060 ft | 486 kts | 100° |
| 2026-05-04 22:21 | 43.11050 | 28.50514 | 31051 ft | 485 kts | 100° |
| 2026-05-04 22:21 | 43.09442 | 28.59502 | 31052 ft | 485 kts | 100° |
| 2026-05-04 22:22 | 43.07833 | 28.68463 | 31048 ft | 485 kts | 100° |
| 2026-05-04 22:22 | 43.06221 | 28.77415 | 31040 ft | 483 kts | 100° |
| 2026-05-04 22:23 | 43.04663 | 28.86276 | 31043 ft | 481 kts | 99° |
| 2026-05-04 22:23 | 43.03165 | 28.95171 | 31035 ft | 479 kts | 99° |
| 2026-05-04 22:24 | 43.01667 | 29.04040 | 31064 ft | 478 kts | 98° |
| 2026-05-04 22:24 | 43.00158 | 29.12876 | 31043 ft | 477 kts | 98° |
| 2026-05-04 22:25 | 42.98639 | 29.21692 | 31029 ft | 476 kts | 98° |
| 2026-05-04 22:25 | 42.97124 | 29.30438 | 31032 ft | 475 kts | 98° |
| 2026-05-04 22:26 | 42.95597 | 29.39211 | 31035 ft | 475 kts | 99° |
| 2026-05-04 22:26 | 42.94062 | 29.47994 | 31028 ft | 475 kts | 99° |
| 2026-05-04 22:27 | 42.92519 | 29.56772 | 31030 ft | 476 kts | 99° |
| 2026-05-04 22:27 | 42.90968 | 29.65558 | 31027 ft | 477 kts | 99° |
| 2026-05-04 22:28 | 42.89407 | 29.74357 | 31036 ft | 477 kts | 99° |
| 2026-05-04 22:28 | 42.87851 | 29.83083 | 31020 ft | 475 kts | 99° |
| 2026-05-04 22:29 | 42.86285 | 29.91827 | 31012 ft | 474 kts | 99° |
| 2026-05-04 22:29 | 42.84717 | 30.00539 | 31009 ft | 473 kts | 99° |
| 2026-05-04 22:30 | 42.83142 | 30.09249 | 31014 ft | 472 kts | 99° |
| 2026-05-04 22:30 | 42.81568 | 30.17919 | 31010 ft | 472 kts | 99° |
| 2026-05-04 22:31 | 42.79983 | 30.26604 | 31003 ft | 472 kts | 99° |
| 2026-05-04 22:31 | 42.78403 | 30.35226 | 31003 ft | 473 kts | 99° |
| 2026-05-04 22:32 | 42.76800 | 30.43932 | 30990 ft | 473 kts | 98° |
| 2026-05-04 22:32 | 42.75196 | 30.52619 | 30989 ft | 473 kts | 99° |
| 2026-05-04 22:33 | 42.73670 | 30.61320 | 30983 ft | 469 kts | 94° |
| 2026-05-04 22:33 | 42.72794 | 30.70080 | 30981 ft | 467 kts | 92° |
| 2026-05-04 22:34 | 42.71944 | 30.78838 | 30987 ft | 467 kts | 92° |
| 2026-05-04 22:34 | 42.71072 | 30.87520 | 30978 ft | 465 kts | 92° |
| 2026-05-04 22:35 | 42.70180 | 30.96215 | 30969 ft | 463 kts | 92° |
| 2026-05-04 22:35 | 42.69280 | 31.04900 | 30971 ft | 462 kts | 92° |
| 2026-05-04 22:36 | 42.68378 | 31.13551 | 30981 ft | 462 kts | 92° |
| 2026-05-04 22:36 | 42.67470 | 31.22200 | 30968 ft | 462 kts | 92° |
| 2026-05-04 22:37 | 42.66557 | 31.30839 | 30955 ft | 462 kts | 92° |
| 2026-05-04 22:37 | 42.65635 | 31.39489 | 30958 ft | 461 kts | 92° |
| 2026-05-04 22:38 | 42.64715 | 31.48056 | 30985 ft | 461 kts | 92° |
| 2026-05-04 22:38 | 42.63781 | 31.56696 | 30953 ft | 461 kts | 92° |
| 2026-05-04 22:39 | 42.62844 | 31.65299 | 30945 ft | 460 kts | 92° |
| 2026-05-04 22:39 | 42.61902 | 31.73893 | 30942 ft | 459 kts | 92° |
| 2026-05-04 22:40 | 42.60955 | 31.82476 | 30943 ft | 459 kts | 92° |
| 2026-05-04 22:40 | 42.60008 | 31.91001 | 30942 ft | 459 kts | 92° |
| 2026-05-04 22:41 | 42.59050 | 31.99567 | 30939 ft | 459 kts | 92° |
| 2026-05-04 22:41 | 42.58008 | 32.08120 | 30936 ft | 459 kts | 93° |
| 2026-05-04 22:42 | 42.57007 | 32.16679 | 30938 ft | 458 kts | 92° |
| 2026-05-04 22:42 | 42.56048 | 32.25235 | 30941 ft | 458 kts | 92° |
| 2026-05-04 22:43 | 42.55075 | 32.33771 | 30936 ft | 458 kts | 93° |
| 2026-05-04 22:43 | 42.54085 | 32.42320 | 30936 ft | 457 kts | 93° |
| 2026-05-04 22:44 | 42.53095 | 32.50780 | 30930 ft | 456 kts | 93° |
| 2026-05-04 22:44 | 42.52097 | 32.59260 | 30946 ft | 455 kts | 93° |
| 2026-05-04 22:45 | 42.51093 | 32.67733 | 30937 ft | 454 kts | 93° |
| 2026-05-04 22:45 | 42.49580 | 32.80399 | 30937 ft | 453 kts | 93° |
| 2026-05-04 22:46 | 42.48567 | 32.88820 | 30937 ft | 453 kts | 94° |
| 2026-05-04 22:46 | 42.47552 | 32.97203 | 30937 ft | 453 kts | 94° |
| 2026-05-04 22:47 | 42.46526 | 33.05638 | 30940 ft | 454 kts | 94° |
| 2026-05-04 22:47 | 42.45666 | 33.12656 | 30941 ft | 454 kts | 94° |
| 2026-05-04 22:48 | 42.44460 | 33.22512 | 31226 ft | 458 kts | 94° |
| 2026-05-04 22:48 | 42.44107 | 33.25394 | 31455 ft | 457 kts | 94° |
| 2026-05-04 22:48 | 42.43587 | 33.29626 | 31893 ft | 454 kts | 94° |
| 2026-05-04 22:49 | 42.43075 | 33.33792 | 32249 ft | 453 kts | 94° |
| 2026-05-04 22:49 | 42.42556 | 33.38004 | 32529 ft | 453 kts | 94° |
| 2026-05-04 22:49 | 42.42031 | 33.42242 | 32760 ft | 454 kts | 94° |
| 2026-05-04 22:49 | 42.41502 | 33.46462 | 32865 ft | 456 kts | 94° |
| 2026-05-04 22:50 | 42.40433 | 33.54847 | 32942 ft | 454 kts | 95° |
| 2026-05-04 22:50 | 42.39358 | 33.63245 | 32986 ft | 452 kts | 95° |
| 2026-05-04 22:51 | 42.38284 | 33.71623 | 32953 ft | 451 kts | 95° |
| 2026-05-04 22:51 | 42.37208 | 33.79971 | 32944 ft | 449 kts | 95° |
| 2026-05-04 22:52 | 42.36129 | 33.88293 | 32942 ft | 448 kts | 95° |
| 2026-05-04 22:52 | 42.35052 | 33.96547 | 32944 ft | 448 kts | 95° |
| 2026-05-04 22:53 | 42.33966 | 34.04854 | 32947 ft | 449 kts | 96° |
| 2026-05-04 22:53 | 42.32870 | 34.13187 | 32945 ft | 450 kts | 96° |
| 2026-05-04 22:54 | 42.31767 | 34.21534 | 32943 ft | 451 kts | 96° |
| 2026-05-04 22:54 | 42.30657 | 34.29891 | 32942 ft | 452 kts | 96° |
| 2026-05-04 22:55 | 42.29539 | 34.38261 | 32960 ft | 453 kts | 96° |
| 2026-05-04 22:55 | 42.28405 | 34.46600 | 32952 ft | 455 kts | 97° |
| 2026-05-04 22:56 | 42.27246 | 34.55024 | 32941 ft | 456 kts | 97° |
| 2026-05-04 22:56 | 42.26083 | 34.63444 | 32948 ft | 456 kts | 97° |
| 2026-05-04 22:57 | 42.24923 | 34.71831 | 32960 ft | 457 kts | 98° |
| 2026-05-04 22:57 | 42.23746 | 34.80274 | 32961 ft | 458 kts | 98° |
| 2026-05-04 22:58 | 42.22560 | 34.88755 | 32944 ft | 459 kts | 98° |
| 2026-05-04 22:58 | 42.21371 | 34.97245 | 32942 ft | 460 kts | 98° |
| 2026-05-04 22:59 | 42.20173 | 35.05753 | 32959 ft | 461 kts | 98° |
| 2026-05-04 22:59 | 42.18976 | 35.14212 | 32946 ft | 462 kts | 99° |
| 2026-05-04 23:00 | 42.17762 | 35.22737 | 32950 ft | 463 kts | 99° |
| 2026-05-04 23:00 | 42.16539 | 35.31287 | 32950 ft | 464 kts | 99° |
| 2026-05-04 23:01 | 42.15309 | 35.39844 | 32947 ft | 465 kts | 99° |
| 2026-05-04 23:01 | 42.14078 | 35.48359 | 32938 ft | 466 kts | 99° |
| 2026-05-04 23:02 | 42.12832 | 35.56948 | 32947 ft | 466 kts | 99° |
| 2026-05-04 23:02 | 42.11589 | 35.65485 | 32945 ft | 467 kts | 99° |
| 2026-05-04 23:03 | 42.10334 | 35.74060 | 32945 ft | 467 kts | 100° |
| 2026-05-04 23:03 | 42.09071 | 35.82642 | 32942 ft | 467 kts | 100° |
| 2026-05-04 23:04 | 42.07803 | 35.91214 | 32943 ft | 467 kts | 100° |
| 2026-05-04 23:04 | 42.06526 | 35.99801 | 32940 ft | 467 kts | 101° |
| 2026-05-04 23:05 | 42.05250 | 36.08328 | 32940 ft | 467 kts | 101° |
| 2026-05-04 23:05 | 42.03960 | 36.16909 | 32942 ft | 467 kts | 101° |
| 2026-05-04 23:06 | 42.02664 | 36.25483 | 32940 ft | 467 kts | 101° |
| 2026-05-04 23:06 | 42.01370 | 36.33997 | 32940 ft | 467 kts | 101° |
| 2026-05-04 23:07 | 42.00062 | 36.42559 | 32937 ft | 468 kts | 101° |
| 2026-05-04 23:07 | 41.98746 | 36.51131 | 32935 ft | 468 kts | 101° |
| 2026-05-04 23:08 | 41.97425 | 36.59687 | 32940 ft | 467 kts | 101° |
| 2026-05-04 23:08 | 41.96098 | 36.68240 | 32939 ft | 467 kts | 101° |
| 2026-05-04 23:09 | 41.94771 | 36.76750 | 32937 ft | 467 kts | 101° |
| 2026-05-04 23:09 | 41.93429 | 36.85314 | 32932 ft | 468 kts | 102° |
| 2026-05-04 23:10 | 41.92083 | 36.93870 | 32936 ft | 468 kts | 102° |
| 2026-05-04 23:10 | 41.90758 | 37.02378 | 32932 ft | 468 kts | 99° |
| 2026-05-04 23:11 | 41.90224 | 37.11084 | 32937 ft | 468 kts | 91° |
| 2026-05-04 23:11 | 41.90144 | 37.19825 | 32925 ft | 469 kts | 91° |
| 2026-05-04 23:12 | 41.90036 | 37.28599 | 32934 ft | 470 kts | 91° |
| 2026-05-04 23:12 | 41.89902 | 37.37384 | 32934 ft | 471 kts | 92° |
| 2026-05-04 23:13 | 41.89753 | 37.46198 | 32929 ft | 472 kts | 92° |
| 2026-05-04 23:13 | 41.89597 | 37.55017 | 32929 ft | 473 kts | 92° |
| 2026-05-04 23:14 | 41.89436 | 37.63802 | 32920 ft | 473 kts | 92° |
| 2026-05-04 23:14 | 41.89267 | 37.72652 | 32928 ft | 473 kts | 92° |
| 2026-05-04 23:15 | 41.89093 | 37.81438 | 32926 ft | 473 kts | 92° |
| 2026-05-04 23:15 | 41.88912 | 37.90272 | 32920 ft | 474 kts | 92° |
| 2026-05-04 23:16 | 41.88723 | 37.99116 | 32924 ft | 473 kts | 92° |
| 2026-05-04 23:16 | 41.88527 | 38.07960 | 32921 ft | 474 kts | 93° |
| 2026-05-04 23:17 | 41.88325 | 38.16798 | 32922 ft | 474 kts | 93° |
| 2026-05-04 23:17 | 41.88117 | 38.25590 | 32922 ft | 474 kts | 93° |
| 2026-05-04 23:18 | 41.87901 | 38.34435 | 32919 ft | 474 kts | 93° |
| 2026-05-04 23:18 | 41.87678 | 38.43299 | 32915 ft | 474 kts | 93° |
| 2026-05-04 23:19 | 41.87448 | 38.52149 | 32917 ft | 475 kts | 94° |
| 2026-05-04 23:19 | 41.87211 | 38.61005 | 32918 ft | 475 kts | 94° |
| 2026-05-04 23:20 | 41.86969 | 38.69813 | 32917 ft | 476 kts | 93° |
| 2026-05-04 23:20 | 41.86718 | 38.78707 | 32918 ft | 476 kts | 94° |
| 2026-05-04 23:21 | 41.86460 | 38.87594 | 32904 ft | 476 kts | 94° |
| 2026-05-04 23:21 | 41.86195 | 38.96477 | 32919 ft | 477 kts | 94° |
| 2026-05-04 23:22 | 41.85924 | 39.05330 | 32914 ft | 477 kts | 94° |
| 2026-05-04 23:22 | 41.85645 | 39.14252 | 32915 ft | 478 kts | 94° |
| 2026-05-04 23:23 | 41.85361 | 39.23113 | 32912 ft | 478 kts | 94° |
| 2026-05-04 23:23 | 41.85068 | 39.32031 | 32906 ft | 479 kts | 95° |
| 2026-05-04 23:24 | 41.84768 | 39.40976 | 32916 ft | 479 kts | 95° |
| 2026-05-04 23:24 | 41.84462 | 39.49905 | 32914 ft | 479 kts | 95° |
| 2026-05-04 23:25 | 41.84153 | 39.58836 | 32915 ft | 479 kts | 95° |
| 2026-05-04 23:25 | 41.83847 | 39.67716 | 32904 ft | 479 kts | 95° |
| 2026-05-04 23:26 | 41.83534 | 39.76656 | 32904 ft | 480 kts | 95° |
| 2026-05-04 23:26 | 41.83212 | 39.85616 | 32915 ft | 480 kts | 95° |
| 2026-05-04 23:27 | 41.82886 | 39.94521 | 32914 ft | 481 kts | 95° |
| 2026-05-04 23:27 | 41.82550 | 40.03496 | 32909 ft | 482 kts | 95° |
| 2026-05-04 23:28 | 41.82208 | 40.12481 | 32905 ft | 482 kts | 95° |
| 2026-05-04 23:28 | 41.81839 | 40.21462 | 32918 ft | 483 kts | 95° |
| 2026-05-04 23:29 | 41.81452 | 40.30449 | 32920 ft | 483 kts | 96° |
| 2026-05-04 23:29 | 41.81063 | 40.39443 | 32911 ft | 483 kts | 96° |
| 2026-05-04 23:30 | 41.80671 | 40.48394 | 32915 ft | 484 kts | 96° |
| 2026-05-04 23:30 | 41.80270 | 40.57417 | 32909 ft | 484 kts | 96° |
| 2026-05-04 23:31 | 41.79861 | 40.66430 | 32913 ft | 484 kts | 96° |
| 2026-05-04 23:31 | 41.79429 | 40.75387 | 32917 ft | 484 kts | 96° |
| 2026-05-04 23:32 | 41.78980 | 40.84377 | 32910 ft | 483 kts | 96° |
| 2026-05-04 23:32 | 41.78528 | 40.93373 | 32910 ft | 482 kts | 96° |
| 2026-05-04 23:33 | 41.78072 | 41.02352 | 32912 ft | 482 kts | 96° |
| 2026-05-04 23:33 | 41.77612 | 41.11275 | 32917 ft | 483 kts | 97° |
| 2026-05-04 23:34 | 41.77140 | 41.20287 | 32917 ft | 484 kts | 97° |
| 2026-05-04 23:34 | 41.76663 | 41.29270 | 32915 ft | 484 kts | 97° |
| 2026-05-04 23:35 | 41.76178 | 41.38282 | 32899 ft | 485 kts | 97° |
| 2026-05-04 23:35 | 41.75688 | 41.47241 | 32905 ft | 485 kts | 97° |
| 2026-05-04 23:36 | 41.75187 | 41.56268 | 32916 ft | 486 kts | 97° |
| 2026-05-04 23:36 | 41.74678 | 41.65311 | 32913 ft | 486 kts | 97° |
| 2026-05-04 23:37 | 41.74251 | 41.72815 | 32911 ft | 486 kts | 97° |
| 2026-05-04 23:37 | 41.73646 | 41.83302 | 32900 ft | 486 kts | 97° |
| 2026-05-04 23:38 | 41.73118 | 41.92332 | 32902 ft | 486 kts | 97° |
| 2026-05-04 23:38 | 41.72671 | 41.99852 | 32868 ft | 487 kts | 97° |
| 2026-05-04 23:39 | 41.72130 | 42.08879 | 32886 ft | 487 kts | 98° |
| 2026-05-04 23:39 | 41.71584 | 42.17936 | 32893 ft | 488 kts | 98° |
| 2026-05-04 23:40 | 41.71035 | 42.27006 | 32864 ft | 490 kts | 98° |
| 2026-05-04 23:40 | 41.70481 | 42.36092 | 32880 ft | 490 kts | 98° |
| 2026-05-04 23:41 | 41.69914 | 42.45205 | 32874 ft | 491 kts | 98° |
| 2026-05-04 23:41 | 41.69342 | 42.54322 | 32864 ft | 492 kts | 98° |
| 2026-05-04 23:42 | 41.68767 | 42.63372 | 32847 ft | 490 kts | 98° |
| 2026-05-04 23:42 | 41.68182 | 42.72470 | 32860 ft | 490 kts | 98° |
| 2026-05-04 23:43 | 41.67592 | 42.81545 | 32870 ft | 490 kts | 98° |
| 2026-05-04 23:43 | 41.66988 | 42.90624 | 32877 ft | 489 kts | 99° |
| 2026-05-04 23:44 | 41.66360 | 42.99687 | 32873 ft | 489 kts | 99° |
| 2026-05-04 23:44 | 41.65729 | 43.08707 | 32872 ft | 491 kts | 99° |
| 2026-05-04 23:45 | 41.65086 | 43.17826 | 32869 ft | 492 kts | 99° |
| 2026-05-04 23:45 | 41.64439 | 43.26951 | 32878 ft | 493 kts | 99° |
| 2026-05-04 23:46 | 41.63781 | 43.36089 | 32874 ft | 494 kts | 99° |
| 2026-05-04 23:46 | 41.63118 | 43.45236 | 32854 ft | 493 kts | 99° |
| 2026-05-04 23:47 | 41.62451 | 43.54329 | 32868 ft | 494 kts | 99° |
| 2026-05-04 23:47 | 41.61771 | 43.63502 | 32870 ft | 496 kts | 99° |
| 2026-05-04 23:48 | 41.61087 | 43.72675 | 32876 ft | 496 kts | 99° |
| 2026-05-04 23:48 | 41.60400 | 43.81806 | 32865 ft | 495 kts | 99° |
| 2026-05-04 23:49 | 41.59701 | 43.90978 | 32864 ft | 495 kts | 99° |
| 2026-05-04 23:49 | 41.58995 | 44.00150 | 32877 ft | 497 kts | 99° |
| 2026-05-04 23:50 | 41.58285 | 44.09291 | 32884 ft | 498 kts | 99° |
| 2026-05-04 23:50 | 41.57561 | 44.18523 | 32881 ft | 500 kts | 100° |
| 2026-05-04 23:51 | 41.56210 | 44.27580 | 32862 ft | 494 kts | 112° |
| 2026-05-04 23:51 | 41.53998 | 44.36283 | 32886 ft | 495 kts | 113° |
| 2026-05-04 23:52 | 41.51784 | 44.45020 | 32889 ft | 498 kts | 112° |
| 2026-05-04 23:52 | 41.49609 | 44.53742 | 32892 ft | 498 kts | 112° |
| 2026-05-04 23:53 | 41.47427 | 44.62517 | 32878 ft | 498 kts | 112° |
| 2026-05-04 23:53 | 41.45235 | 44.71300 | 32856 ft | 498 kts | 112° |
| 2026-05-04 23:54 | 41.43040 | 44.80050 | 32878 ft | 497 kts | 112° |
| 2026-05-04 23:54 | 41.40853 | 44.88732 | 32839 ft | 496 kts | 113° |
| 2026-05-04 23:55 | 41.38644 | 44.97473 | 32864 ft | 498 kts | 113° |
| 2026-05-04 23:56 | 41.35308 | 45.10614 | 32867 ft | 500 kts | 114° |
| 2026-05-04 23:56 | 41.33074 | 45.19339 | 32841 ft | 502 kts | 114° |
| 2026-05-04 23:57 | 41.30809 | 45.28162 | 32854 ft | 503 kts | 114° |
| 2026-05-04 23:57 | 41.28538 | 45.36981 | 32846 ft | 505 kts | 114° |
| 2026-05-04 23:58 | 41.26260 | 45.45807 | 32847 ft | 505 kts | 114° |
| 2026-05-04 23:58 | 41.23975 | 45.54630 | 32837 ft | 504 kts | 115° |
| 2026-05-04 23:59 | 41.21697 | 45.63386 | 32846 ft | 504 kts | 115° |
| 2026-05-04 23:59 | 41.19389 | 45.72169 | 32852 ft | 504 kts | 115° |
| 2026-05-05 00:00 | 41.17059 | 45.80936 | 32845 ft | 504 kts | 115° |
| 2026-05-05 00:00 | 41.14726 | 45.89689 | 32855 ft | 503 kts | 117° |
| 2026-05-05 00:01 | 41.12388 | 45.98456 | 32855 ft | 504 kts | 117° |
| 2026-05-05 00:01 | 41.10045 | 46.07213 | 32861 ft | 504 kts | 117° |
| 2026-05-05 00:02 | 41.07690 | 46.15980 | 32842 ft | 504 kts | 117° |
| 2026-05-05 00:02 | 41.05330 | 46.24742 | 32863 ft | 505 kts | 118° |
| 2026-05-05 00:03 | 41.02977 | 46.33467 | 32870 ft | 506 kts | 117° |
| 2026-05-05 00:03 | 41.00631 | 46.42274 | 32869 ft | 507 kts | 117° |
| 2026-05-05 00:04 | 40.98279 | 46.51093 | 32861 ft | 507 kts | 118° |
| 2026-05-05 00:04 | 40.95935 | 46.59836 | 32872 ft | 507 kts | 118° |
| 2026-05-05 00:05 | 40.93567 | 46.68636 | 32866 ft | 507 kts | 118° |
| 2026-05-05 00:05 | 40.91290 | 46.77500 | 32841 ft | 513 kts | 111° |
| 2026-05-05 00:05 | 40.90752 | 46.82221 | 32866 ft | 526 kts | 101° |
| 2026-05-05 00:06 | 40.90801 | 46.87046 | 32872 ft | 536 kts | 91° |
| 2026-05-05 00:06 | 40.92407 | 46.96814 | 32859 ft | 547 kts | 81° |
| 2026-05-05 00:07 | 40.94358 | 47.06561 | 32874 ft | 547 kts | 81° |
| 2026-05-05 00:07 | 40.96225 | 47.16324 | 32878 ft | 547 kts | 82° |
| 2026-05-05 00:08 | 40.98008 | 47.26049 | 32878 ft | 547 kts | 82° |
| 2026-05-05 00:08 | 40.99781 | 47.35829 | 32876 ft | 546 kts | 82° |
| 2026-05-05 00:09 | 41.01551 | 47.45611 | 32856 ft | 546 kts | 82° |
| 2026-05-05 00:09 | 41.03323 | 47.55433 | 32865 ft | 548 kts | 82° |
| 2026-05-05 00:10 | 41.05079 | 47.65215 | 32861 ft | 550 kts | 82° |
| 2026-05-05 00:10 | 41.06845 | 47.75105 | 32866 ft | 552 kts | 83° |
| 2026-05-05 00:11 | 41.08610 | 47.85037 | 32844 ft | 554 kts | 83° |
| 2026-05-05 00:11 | 41.10374 | 47.95006 | 32830 ft | 553 kts | 83° |
| 2026-05-05 00:12 | 41.12655 | 48.04794 | 32856 ft | 557 kts | 73° |
| 2026-05-05 00:12 | 41.15402 | 48.14361 | 32847 ft | 553 kts | 73° |
| 2026-05-05 00:13 | 41.18103 | 48.23852 | 32871 ft | 553 kts | 74° |
| 2026-05-05 00:13 | 41.20776 | 48.33473 | 32827 ft | 555 kts | 73° |
| 2026-05-05 00:14 | 41.23422 | 48.43093 | 32865 ft | 552 kts | 73° |
| 2026-05-05 00:14 | 41.26040 | 48.52641 | 32876 ft | 552 kts | 73° |
| 2026-05-05 00:15 | 41.28670 | 48.62247 | 32866 ft | 552 kts | 73° |
| 2026-05-05 00:15 | 41.31281 | 48.71828 | 32891 ft | 551 kts | 73° |
| 2026-05-05 00:16 | 41.33884 | 48.81411 | 32903 ft | 549 kts | 73° |
| 2026-05-05 00:16 | 41.36477 | 48.90996 | 32875 ft | 549 kts | 73° |
| 2026-05-05 00:17 | 41.39030 | 49.00493 | 32899 ft | 547 kts | 73° |
| 2026-05-05 00:17 | 41.41589 | 49.10058 | 32910 ft | 546 kts | 73° |
| 2026-05-05 00:18 | 41.44117 | 49.19543 | 32902 ft | 546 kts | 73° |
| 2026-05-05 00:18 | 41.46655 | 49.29095 | 32911 ft | 546 kts | 73° |
| 2026-05-05 00:19 | 41.49182 | 49.38643 | 32910 ft | 546 kts | 73° |
| 2026-05-05 00:19 | 41.51704 | 49.48211 | 32913 ft | 546 kts | 73° |
| 2026-05-05 00:20 | 41.54219 | 49.57790 | 32915 ft | 546 kts | 73° |
| 2026-05-05 00:20 | 41.56724 | 49.67364 | 32914 ft | 546 kts | 73° |
| 2026-05-05 00:21 | 41.59220 | 49.76945 | 32906 ft | 546 kts | 74° |
| 2026-05-05 00:21 | 41.61693 | 49.86477 | 32898 ft | 546 kts | 74° |
| 2026-05-05 00:22 | 41.64174 | 49.96074 | 32905 ft | 545 kts | 74° |
| 2026-05-05 00:22 | 41.66645 | 50.05673 | 32911 ft | 545 kts | 74° |
| 2026-05-05 00:23 | 41.69105 | 50.15269 | 32906 ft | 545 kts | 74° |
| 2026-05-05 00:23 | 41.71560 | 50.24879 | 32906 ft | 545 kts | 74° |
| 2026-05-05 00:24 | 41.74002 | 50.34481 | 32909 ft | 545 kts | 74° |
| 2026-05-05 00:24 | 41.76422 | 50.44032 | 32888 ft | 544 kts | 74° |
| 2026-05-05 00:25 | 41.78844 | 50.53635 | 32914 ft | 544 kts | 74° |
| 2026-05-05 00:25 | 41.81257 | 50.63237 | 32894 ft | 543 kts | 74° |
| 2026-05-05 00:26 | 41.83270 | 50.71277 | 32915 ft | 543 kts | 74° |
| 2026-05-05 00:26 | 41.85653 | 50.80832 | 32906 ft | 543 kts | 74° |
| 2026-05-05 00:27 | 41.88041 | 50.90443 | 32889 ft | 543 kts | 74° |
| 2026-05-05 00:27 | 41.90424 | 51.00078 | 32907 ft | 543 kts | 75° |
| 2026-05-05 00:28 | 41.92797 | 51.09710 | 32891 ft | 542 kts | 74° |
| 2026-05-05 00:28 | 41.95158 | 51.19330 | 32884 ft | 542 kts | 74° |
| 2026-05-05 00:29 | 41.97498 | 51.28907 | 32892 ft | 543 kts | 74° |
| 2026-05-05 00:29 | 41.99848 | 51.38557 | 32889 ft | 543 kts | 74° |
| 2026-05-05 00:30 | 42.02692 | 51.48000 | 32893 ft | 546 kts | 64° |
| 2026-05-05 00:30 | 42.06651 | 51.56718 | 32906 ft | 547 kts | 56° |
| 2026-05-05 00:31 | 42.10879 | 51.65260 | 32890 ft | 547 kts | 56° |
| 2026-05-05 00:31 | 42.15039 | 51.73769 | 32889 ft | 547 kts | 57° |
| 2026-05-05 00:32 | 42.19183 | 51.82366 | 32884 ft | 546 kts | 57° |
| 2026-05-05 00:32 | 42.23299 | 51.90959 | 32876 ft | 545 kts | 57° |
| 2026-05-05 00:33 | 42.27407 | 51.99555 | 32882 ft | 544 kts | 57° |
| 2026-05-05 00:33 | 42.31501 | 52.08138 | 32897 ft | 543 kts | 57° |
| 2026-05-05 00:34 | 42.35563 | 52.16676 | 32887 ft | 543 kts | 57° |
| 2026-05-05 00:34 | 42.39648 | 52.25286 | 32882 ft | 542 kts | 58° |
| 2026-05-05 00:35 | 42.43719 | 52.33893 | 32883 ft | 542 kts | 58° |
| 2026-05-05 00:35 | 42.47783 | 52.42510 | 32879 ft | 542 kts | 58° |
| 2026-05-05 00:36 | 42.51803 | 52.51058 | 32880 ft | 541 kts | 58° |
| 2026-05-05 00:36 | 42.55848 | 52.59685 | 32878 ft | 540 kts | 58° |
| 2026-05-05 00:37 | 42.59877 | 52.68303 | 32867 ft | 540 kts | 58° |
| 2026-05-05 00:37 | 42.63892 | 52.76915 | 32877 ft | 539 kts | 58° |
| 2026-05-05 00:38 | 42.67869 | 52.85469 | 32877 ft | 538 kts | 58° |
| 2026-05-05 00:38 | 42.71867 | 52.94095 | 32883 ft | 537 kts | 58° |
| 2026-05-05 00:39 | 42.75823 | 53.02655 | 32880 ft | 536 kts | 58° |
| 2026-05-05 00:39 | 42.79789 | 53.11261 | 32876 ft | 535 kts | 58° |
| 2026-05-05 00:40 | 42.83738 | 53.19855 | 32871 ft | 535 kts | 58° |
| 2026-05-05 00:40 | 42.87680 | 53.28459 | 32877 ft | 533 kts | 58° |
| 2026-05-05 00:41 | 42.91580 | 53.36994 | 32877 ft | 533 kts | 58° |
| 2026-05-05 00:41 | 42.95497 | 53.45592 | 32889 ft | 533 kts | 58° |
| 2026-05-05 00:42 | 42.99289 | 53.54283 | 32873 ft | 532 kts | 65° |
| 2026-05-05 00:42 | 43.01673 | 53.63806 | 32880 ft | 527 kts | 80° |
| 2026-05-05 00:43 | 43.02557 | 53.73708 | 32874 ft | 524 kts | 88° |
| 2026-05-05 00:43 | 43.03134 | 53.83581 | 32878 ft | 524 kts | 88° |
| 2026-05-05 00:44 | 43.03753 | 53.93537 | 32879 ft | 525 kts | 88° |
| 2026-05-05 00:44 | 43.04404 | 54.03487 | 32865 ft | 525 kts | 88° |
| 2026-05-05 00:45 | 43.05055 | 54.13391 | 32880 ft | 525 kts | 88° |
| 2026-05-05 00:45 | 43.05699 | 54.23359 | 32881 ft | 526 kts | 88° |
| 2026-05-05 00:46 | 43.06329 | 54.33285 | 32870 ft | 525 kts | 88° |
| 2026-05-05 00:46 | 43.06951 | 54.43235 | 32867 ft | 525 kts | 88° |
| 2026-05-05 00:47 | 43.07564 | 54.53196 | 32870 ft | 524 kts | 88° |
| 2026-05-05 00:47 | 43.08165 | 54.63084 | 32869 ft | 523 kts | 88° |
| 2026-05-05 00:48 | 43.08759 | 54.73014 | 32869 ft | 523 kts | 88° |
| 2026-05-05 00:48 | 43.09345 | 54.82941 | 32857 ft | 523 kts | 88° |
| 2026-05-05 00:49 | 43.09922 | 54.92871 | 32874 ft | 523 kts | 88° |
| 2026-05-05 00:49 | 43.10488 | 55.02761 | 32869 ft | 524 kts | 88° |
| 2026-05-05 00:50 | 43.11050 | 55.12722 | 32868 ft | 524 kts | 88° |
| 2026-05-05 00:50 | 43.11601 | 55.22654 | 32867 ft | 524 kts | 88° |
| 2026-05-05 00:51 | 43.12145 | 55.32611 | 32862 ft | 524 kts | 88° |
| 2026-05-05 00:51 | 43.12680 | 55.42570 | 32864 ft | 524 kts | 88° |
| 2026-05-05 00:52 | 43.13206 | 55.52517 | 32863 ft | 524 kts | 88° |
| 2026-05-05 00:52 | 43.13721 | 55.62425 | 32855 ft | 524 kts | 88° |
| 2026-05-05 00:53 | 43.14231 | 55.72395 | 32867 ft | 525 kts | 88° |
| 2026-05-05 00:53 | 43.14734 | 55.82382 | 32870 ft | 525 kts | 88° |
| 2026-05-05 00:54 | 43.15229 | 55.92361 | 32863 ft | 525 kts | 88° |
| 2026-05-05 00:54 | 43.16072 | 56.02307 | 32861 ft | 526 kts | 79° |
| 2026-05-05 00:55 | 43.18016 | 56.11909 | 32869 ft | 527 kts | 74° |
| 2026-05-05 00:55 | 43.20120 | 56.21536 | 32861 ft | 527 kts | 74° |
| 2026-05-05 00:56 | 43.22179 | 56.31180 | 32867 ft | 526 kts | 75° |
| 2026-05-05 00:56 | 43.24198 | 56.40831 | 32868 ft | 526 kts | 75° |
| 2026-05-05 00:57 | 43.26205 | 56.50501 | 32869 ft | 526 kts | 75° |
| 2026-05-05 00:57 | 43.28192 | 56.60112 | 32868 ft | 526 kts | 75° |
| 2026-05-05 00:58 | 43.30186 | 56.69785 | 32857 ft | 527 kts | 75° |
| 2026-05-05 00:58 | 43.32174 | 56.79474 | 32874 ft | 527 kts | 75° |
| 2026-05-05 00:59 | 43.34160 | 56.89201 | 32874 ft | 527 kts | 75° |
| 2026-05-05 00:59 | 43.36132 | 56.98907 | 32869 ft | 527 kts | 75° |
| 2026-05-05 01:00 | 43.38086 | 57.08568 | 32874 ft | 527 kts | 75° |
| 2026-05-05 01:00 | 43.40038 | 57.18271 | 32877 ft | 526 kts | 75° |
| 2026-05-05 01:01 | 43.41980 | 57.27968 | 32879 ft | 525 kts | 75° |
| 2026-05-05 01:01 | 43.43908 | 57.37642 | 32874 ft | 524 kts | 75° |
| 2026-05-05 01:02 | 43.45828 | 57.47324 | 32876 ft | 523 kts | 75° |
| 2026-05-05 01:02 | 43.47733 | 57.56978 | 32881 ft | 522 kts | 75° |
| 2026-05-05 01:03 | 43.49620 | 57.66587 | 32877 ft | 522 kts | 75° |
| 2026-05-05 01:03 | 43.51506 | 57.76238 | 32883 ft | 522 kts | 75° |
| 2026-05-05 01:04 | 43.53386 | 57.85905 | 32882 ft | 522 kts | 75° |
| 2026-05-05 01:04 | 43.56188 | 58.00401 | 32884 ft | 521 kts | 75° |
| 2026-05-05 01:05 | 43.58032 | 58.10005 | 32890 ft | 521 kts | 75° |
| 2026-05-05 01:05 | 43.59880 | 58.19671 | 32890 ft | 520 kts | 75° |
| 2026-05-05 01:06 | 43.61718 | 58.29331 | 32896 ft | 519 kts | 75° |
| 2026-05-05 01:06 | 43.63542 | 58.38990 | 32890 ft | 518 kts | 76° |
| 2026-05-05 01:07 | 43.65312 | 58.48634 | 32884 ft | 518 kts | 76° |
| 2026-05-05 01:07 | 43.67066 | 58.58298 | 32904 ft | 518 kts | 76° |
| 2026-05-05 01:08 | 43.68805 | 58.67886 | 32900 ft | 518 kts | 76° |
| 2026-05-05 01:08 | 43.70553 | 58.77552 | 32898 ft | 518 kts | 76° |
| 2026-05-05 01:09 | 43.72289 | 58.87205 | 32899 ft | 517 kts | 76° |
| 2026-05-05 01:09 | 43.74017 | 58.96857 | 32898 ft | 517 kts | 76° |
| 2026-05-05 01:10 | 43.75744 | 59.06532 | 32899 ft | 517 kts | 76° |
| 2026-05-05 01:10 | 43.77209 | 59.14556 | 32904 ft | 517 kts | 75° |
| 2026-05-05 01:11 | 43.79269 | 59.25780 | 32909 ft | 517 kts | 76° |
| 2026-05-05 01:11 | 43.81018 | 59.35405 | 32901 ft | 515 kts | 76° |
| 2026-05-05 01:12 | 43.82463 | 59.43411 | 32899 ft | 513 kts | 76° |
| 2026-05-05 01:12 | 43.84185 | 59.53000 | 32901 ft | 512 kts | 76° |
| 2026-05-05 01:13 | 43.85884 | 59.62505 | 32915 ft | 510 kts | 76° |
| 2026-05-05 01:13 | 43.87581 | 59.72056 | 32911 ft | 509 kts | 76° |
| 2026-05-05 01:14 | 43.89230 | 59.81603 | 32911 ft | 508 kts | 76° |
| 2026-05-05 01:14 | 43.90857 | 59.91148 | 32918 ft | 508 kts | 77° |
| 2026-05-05 01:15 | 43.92469 | 60.00628 | 32925 ft | 508 kts | 77° |
| 2026-05-05 01:15 | 43.94086 | 60.10161 | 32927 ft | 508 kts | 77° |
| 2026-05-05 01:16 | 43.95698 | 60.19709 | 32926 ft | 507 kts | 77° |
| 2026-05-05 01:16 | 43.97300 | 60.29253 | 32927 ft | 508 kts | 77° |
| 2026-05-05 01:17 | 43.98895 | 60.38809 | 32943 ft | 507 kts | 77° |
| 2026-05-05 01:17 | 44.00471 | 60.48305 | 32935 ft | 507 kts | 77° |
| 2026-05-05 01:18 | 44.02048 | 60.57862 | 32939 ft | 507 kts | 77° |
| 2026-05-05 01:18 | 44.03615 | 60.67407 | 32951 ft | 506 kts | 77° |
| 2026-05-05 01:19 | 44.05173 | 60.76956 | 32950 ft | 506 kts | 77° |
| 2026-05-05 01:19 | 44.06714 | 60.86446 | 32949 ft | 505 kts | 77° |
| 2026-05-05 01:20 | 44.08252 | 60.95980 | 32953 ft | 504 kts | 77° |
| 2026-05-05 01:20 | 44.09781 | 61.05503 | 32957 ft | 504 kts | 78° |
| 2026-05-05 01:21 | 44.11300 | 61.15021 | 32954 ft | 504 kts | 78° |
| 2026-05-05 01:21 | 44.12812 | 61.24540 | 32962 ft | 504 kts | 78° |
| 2026-05-05 01:22 | 44.14189 | 61.34052 | 32951 ft | 503 kts | 83° |
| 2026-05-05 01:22 | 44.14651 | 61.43776 | 32973 ft | 502 kts | 88° |
| 2026-05-05 01:23 | 44.15008 | 61.53489 | 32959 ft | 502 kts | 88° |
| 2026-05-05 01:23 | 44.15424 | 61.63153 | 32964 ft | 502 kts | 87° |
| 2026-05-05 01:24 | 44.15846 | 61.72855 | 32958 ft | 502 kts | 87° |
| 2026-05-05 01:24 | 44.16263 | 61.82568 | 32977 ft | 502 kts | 87° |
| 2026-05-05 01:25 | 44.16671 | 61.92275 | 32965 ft | 502 kts | 87° |
| 2026-05-05 01:25 | 44.17072 | 62.01995 | 32967 ft | 502 kts | 88° |
| 2026-05-05 01:26 | 44.17463 | 62.11703 | 32966 ft | 502 kts | 88° |
| 2026-05-05 01:26 | 44.17845 | 62.21346 | 32971 ft | 502 kts | 88° |
| 2026-05-05 01:27 | 44.18221 | 62.31064 | 32971 ft | 502 kts | 88° |
| 2026-05-05 01:27 | 44.18562 | 62.40787 | 32972 ft | 502 kts | 88° |
| 2026-05-05 01:28 | 44.18881 | 62.50512 | 32975 ft | 502 kts | 88° |
| 2026-05-05 01:28 | 44.19195 | 62.60184 | 32975 ft | 502 kts | 88° |
| 2026-05-05 01:29 | 44.19506 | 62.69912 | 32977 ft | 502 kts | 88° |
| 2026-05-05 01:29 | 44.19809 | 62.79631 | 32978 ft | 502 kts | 88° |
| 2026-05-05 01:30 | 44.20104 | 62.89352 | 32977 ft | 502 kts | 88° |
| 2026-05-05 01:30 | 44.20391 | 62.99075 | 32978 ft | 502 kts | 88° |
| 2026-05-05 01:31 | 44.20669 | 63.08748 | 32980 ft | 502 kts | 88° |
| 2026-05-05 01:31 | 44.20937 | 63.18490 | 32977 ft | 502 kts | 89° |
| 2026-05-05 01:32 | 44.21090 | 63.28232 | 32978 ft | 502 kts | 90° |
| 2026-05-05 01:32 | 44.21188 | 63.37976 | 32978 ft | 502 kts | 90° |
| 2026-05-05 01:33 | 44.21293 | 63.47717 | 32978 ft | 502 kts | 89° |
| 2026-05-05 01:33 | 44.21401 | 63.57389 | 32975 ft | 502 kts | 89° |
| 2026-05-05 01:34 | 44.21504 | 63.67132 | 32982 ft | 501 kts | 89° |
| 2026-05-05 01:34 | 44.21598 | 63.76863 | 32980 ft | 501 kts | 90° |
| 2026-05-05 01:35 | 44.21683 | 63.86540 | 32983 ft | 501 kts | 90° |
| 2026-05-05 01:35 | 44.21760 | 63.96290 | 32980 ft | 501 kts | 90° |
| 2026-05-05 01:36 | 44.21829 | 64.05940 | 32981 ft | 501 kts | 90° |
| 2026-05-05 01:36 | 44.21891 | 64.15654 | 32981 ft | 501 kts | 90° |
| 2026-05-05 01:37 | 44.22210 | 64.25363 | 32991 ft | 501 kts | 86° |
| 2026-05-05 01:37 | 44.22680 | 64.35053 | 32985 ft | 500 kts | 86° |
| 2026-05-05 01:38 | 44.23131 | 64.44734 | 32984 ft | 499 kts | 86° |
| 2026-05-05 01:38 | 44.23550 | 64.54354 | 32986 ft | 499 kts | 87° |
| 2026-05-05 01:39 | 44.23957 | 64.64021 | 32991 ft | 499 kts | 87° |
| 2026-05-05 01:39 | 44.24359 | 64.73680 | 32986 ft | 498 kts | 87° |
| 2026-05-05 01:40 | 44.24753 | 64.83337 | 32986 ft | 498 kts | 87° |
| 2026-05-05 01:40 | 44.25120 | 64.92930 | 32987 ft | 498 kts | 88° |
| 2026-05-05 01:41 | 44.25476 | 65.02590 | 32986 ft | 498 kts | 88° |
| 2026-05-05 01:41 | 44.25827 | 65.12266 | 32986 ft | 498 kts | 88° |
| 2026-05-05 01:42 | 44.26170 | 65.21871 | 32989 ft | 499 kts | 88° |
| 2026-05-05 01:42 | 44.26507 | 65.31551 | 32987 ft | 499 kts | 88° |
| 2026-05-05 01:43 | 44.26836 | 65.41224 | 32990 ft | 499 kts | 88° |
| 2026-05-05 01:43 | 44.27157 | 65.50899 | 32991 ft | 499 kts | 88° |
| 2026-05-05 01:44 | 44.27470 | 65.60574 | 32997 ft | 498 kts | 88° |
| 2026-05-05 01:44 | 44.27772 | 65.70172 | 32996 ft | 498 kts | 88° |
| 2026-05-05 01:45 | 44.28068 | 65.79836 | 32997 ft | 497 kts | 88° |
| 2026-05-05 01:45 | 44.28354 | 65.89467 | 33000 ft | 496 kts | 88° |
| 2026-05-05 01:46 | 44.28633 | 65.99091 | 32992 ft | 495 kts | 89° |
| 2026-05-05 01:46 | 44.28903 | 66.08691 | 32994 ft | 495 kts | 89° |
| 2026-05-05 01:47 | 44.29163 | 66.18230 | 32994 ft | 494 kts | 89° |
| 2026-05-05 01:47 | 44.29417 | 66.27813 | 32999 ft | 493 kts | 89° |
| 2026-05-05 01:48 | 44.29664 | 66.37378 | 32992 ft | 493 kts | 89° |
| 2026-05-05 01:48 | 44.29877 | 66.46951 | 32997 ft | 492 kts | 90° |
| 2026-05-05 01:49 | 44.29951 | 66.56501 | 32994 ft | 491 kts | 90° |
| 2026-05-05 01:49 | 44.29996 | 66.66026 | 33001 ft | 490 kts | 90° |
| 2026-05-05 01:50 | 44.30051 | 66.75494 | 32998 ft | 490 kts | 90° |
| 2026-05-05 01:50 | 44.30109 | 66.85023 | 33001 ft | 490 kts | 90° |
| 2026-05-05 01:51 | 44.30161 | 66.94569 | 32999 ft | 491 kts | 90° |
| 2026-05-05 01:51 | 44.30204 | 67.04046 | 33003 ft | 491 kts | 90° |
| 2026-05-05 01:52 | 44.30238 | 67.13596 | 33002 ft | 491 kts | 90° |
| 2026-05-05 01:52 | 44.30265 | 67.23123 | 32997 ft | 491 kts | 90° |
| 2026-05-05 01:53 | 44.30284 | 67.32646 | 33010 ft | 490 kts | 91° |
| 2026-05-05 01:53 | 44.30296 | 67.42180 | 33007 ft | 491 kts | 91° |
| 2026-05-05 01:54 | 44.30302 | 67.51712 | 33010 ft | 490 kts | 89° |
| 2026-05-05 01:54 | 44.30706 | 67.61144 | 33013 ft | 490 kts | 85° |
| 2026-05-05 01:55 | 44.31250 | 67.70634 | 33008 ft | 490 kts | 85° |
| 2026-05-05 01:55 | 44.31777 | 67.80135 | 33009 ft | 489 kts | 86° |
| 2026-05-05 01:56 | 44.32278 | 67.89620 | 33012 ft | 489 kts | 86° |
| 2026-05-05 01:56 | 44.32761 | 67.99031 | 33007 ft | 488 kts | 86° |
| 2026-05-05 01:57 | 44.33239 | 68.08497 | 33003 ft | 488 kts | 86° |
| 2026-05-05 01:57 | 44.33709 | 68.17949 | 33012 ft | 488 kts | 86° |
| 2026-05-05 01:58 | 44.34172 | 68.27408 | 33013 ft | 487 kts | 85° |
| 2026-05-05 01:58 | 44.34628 | 68.36864 | 33010 ft | 487 kts | 86° |
| 2026-05-05 01:59 | 44.35073 | 68.46253 | 33011 ft | 487 kts | 86° |
| 2026-05-05 01:59 | 44.35513 | 68.55716 | 33012 ft | 487 kts | 86° |
| 2026-05-05 02:00 | 44.35944 | 68.65171 | 33021 ft | 487 kts | 85° |
| 2026-05-05 02:00 | 44.36298 | 68.73022 | 33018 ft | 487 kts | 85° |
| 2026-05-05 02:01 | 44.36785 | 68.84019 | 33017 ft | 487 kts | 85° |
| 2026-05-05 02:01 | 44.37075 | 68.91940 | 33022 ft | 487 kts | 89° |
| 2026-05-05 02:02 | 44.36691 | 69.01345 | 33028 ft | 488 kts | 94° |
| 2026-05-05 02:02 | 44.36170 | 69.10820 | 33034 ft | 489 kts | 93° |
| 2026-05-05 02:03 | 44.35669 | 69.20310 | 33029 ft | 489 kts | 93° |
| 2026-05-05 02:03 | 44.35185 | 69.29797 | 33028 ft | 490 kts | 93° |
| 2026-05-05 02:04 | 44.34698 | 69.39294 | 33028 ft | 489 kts | 93° |
| 2026-05-05 02:04 | 44.34207 | 69.48712 | 33034 ft | 488 kts | 93° |
| 2026-05-05 02:05 | 44.33705 | 69.58164 | 33040 ft | 487 kts | 94° |
| 2026-05-05 02:05 | 44.33194 | 69.67613 | 33042 ft | 487 kts | 94° |
| 2026-05-05 02:06 | 44.32677 | 69.77047 | 33043 ft | 486 kts | 94° |
| 2026-05-05 02:06 | 44.32152 | 69.86461 | 33046 ft | 485 kts | 94° |
| 2026-05-05 02:07 | 44.31626 | 69.95793 | 33040 ft | 483 kts | 94° |
| 2026-05-05 02:07 | 44.31090 | 70.05140 | 33040 ft | 482 kts | 94° |
| 2026-05-05 02:08 | 44.30548 | 70.14476 | 33047 ft | 482 kts | 94° |
| 2026-05-05 02:08 | 44.30000 | 70.23794 | 33055 ft | 481 kts | 94° |
| 2026-05-05 02:09 | 44.29447 | 70.33063 | 33048 ft | 481 kts | 94° |
| 2026-05-05 02:09 | 44.28883 | 70.42378 | 33050 ft | 481 kts | 94° |
| 2026-05-05 02:10 | 44.28313 | 70.51687 | 33052 ft | 481 kts | 94° |
| 2026-05-05 02:10 | 44.27739 | 70.60980 | 33056 ft | 481 kts | 94° |
| 2026-05-05 02:11 | 44.27156 | 70.70280 | 33055 ft | 480 kts | 94° |
| 2026-05-05 02:11 | 44.26567 | 70.79566 | 33057 ft | 480 kts | 94° |
| 2026-05-05 02:12 | 44.25673 | 70.93439 | 33056 ft | 480 kts | 94° |
| 2026-05-05 02:13 | 44.25065 | 71.02722 | 33054 ft | 481 kts | 94° |
| 2026-05-05 02:13 | 44.24448 | 71.12033 | 33064 ft | 480 kts | 94° |
| 2026-05-05 02:14 | 44.23829 | 71.21264 | 33057 ft | 480 kts | 94° |
| 2026-05-05 02:14 | 44.23200 | 71.30536 | 33065 ft | 479 kts | 94° |
| 2026-05-05 02:15 | 44.22565 | 71.39785 | 33070 ft | 479 kts | 94° |
| 2026-05-05 02:15 | 44.21934 | 71.49068 | 33452 ft | 480 kts | 94° |
| 2026-05-05 02:15 | 44.21622 | 71.53682 | 33924 ft | 476 kts | 94° |
| 2026-05-05 02:16 | 44.21311 | 71.58266 | 34314 ft | 474 kts | 94° |
| 2026-05-05 02:16 | 44.20999 | 71.62848 | 34575 ft | 474 kts | 94° |
| 2026-05-05 02:16 | 44.20685 | 71.67418 | 34782 ft | 475 kts | 94° |
| 2026-05-05 02:16 | 44.20367 | 71.72018 | 34973 ft | 476 kts | 94° |
| 2026-05-05 02:17 | 44.20047 | 71.76626 | 35024 ft | 479 kts | 94° |
| 2026-05-05 02:17 | 44.19403 | 71.85796 | 35061 ft | 477 kts | 94° |
| 2026-05-05 02:18 | 44.18750 | 71.94975 | 35077 ft | 474 kts | 94° |
| 2026-05-05 02:18 | 44.18092 | 72.04121 | 35074 ft | 473 kts | 95° |
| 2026-05-05 02:19 | 44.17431 | 72.13223 | 35078 ft | 472 kts | 95° |
| 2026-05-05 02:19 | 44.16766 | 72.22270 | 35076 ft | 472 kts | 95° |
| 2026-05-05 02:20 | 44.16087 | 72.31411 | 35086 ft | 473 kts | 95° |
| 2026-05-05 02:20 | 44.15401 | 72.40540 | 35079 ft | 475 kts | 95° |
| 2026-05-05 02:21 | 44.14707 | 72.49688 | 35075 ft | 475 kts | 95° |
| 2026-05-05 02:21 | 44.14004 | 72.58846 | 35080 ft | 476 kts | 95° |
| 2026-05-05 02:22 | 44.13296 | 72.67971 | 35081 ft | 476 kts | 95° |
| 2026-05-05 02:22 | 44.12578 | 72.77146 | 35078 ft | 476 kts | 95° |
| 2026-05-05 02:23 | 44.11852 | 72.86325 | 35072 ft | 476 kts | 95° |
| 2026-05-05 02:23 | 44.11125 | 72.95430 | 35077 ft | 475 kts | 96° |
| 2026-05-05 02:24 | 44.10377 | 73.04592 | 35069 ft | 475 kts | 95° |
| 2026-05-05 02:24 | 44.09622 | 73.13663 | 35078 ft | 475 kts | 96° |
| 2026-05-05 02:25 | 44.08856 | 73.22800 | 35071 ft | 476 kts | 96° |
| 2026-05-05 02:25 | 44.08084 | 73.31942 | 35076 ft | 476 kts | 96° |
| 2026-05-05 02:26 | 44.07304 | 73.41100 | 35071 ft | 477 kts | 96° |
| 2026-05-05 02:26 | 44.06516 | 73.50263 | 35071 ft | 477 kts | 96° |
| 2026-05-05 02:27 | 44.05726 | 73.59369 | 35071 ft | 477 kts | 96° |
| 2026-05-05 02:27 | 44.04921 | 73.68556 | 35068 ft | 477 kts | 96° |
| 2026-05-05 02:28 | 44.04111 | 73.77709 | 35065 ft | 477 kts | 96° |
| 2026-05-05 02:28 | 44.03299 | 73.86806 | 35071 ft | 477 kts | 96° |
| 2026-05-05 02:29 | 44.02474 | 73.95961 | 35067 ft | 477 kts | 96° |
| 2026-05-05 02:29 | 44.01642 | 74.05113 | 35070 ft | 477 kts | 96° |
| 2026-05-05 02:30 | 44.00804 | 74.14253 | 35070 ft | 477 kts | 96° |
| 2026-05-05 02:30 | 43.99962 | 74.23353 | 35078 ft | 477 kts | 96° |
| 2026-05-05 02:31 | 43.99108 | 74.32503 | 35086 ft | 477 kts | 97° |
| 2026-05-05 02:31 | 43.98249 | 74.41646 | 35080 ft | 478 kts | 97° |
| 2026-05-05 02:32 | 43.97379 | 74.50806 | 35088 ft | 477 kts | 97° |
| 2026-05-05 02:32 | 43.96564 | 74.59898 | 35088 ft | 477 kts | 96° |
| 2026-05-05 02:33 | 43.95776 | 74.69067 | 35085 ft | 478 kts | 96° |
| 2026-05-05 02:33 | 43.94976 | 74.78241 | 35097 ft | 479 kts | 96° |
| 2026-05-05 02:34 | 43.94161 | 74.87424 | 35111 ft | 480 kts | 96° |
| 2026-05-05 02:34 | 43.93339 | 74.96573 | 35105 ft | 481 kts | 97° |
| 2026-05-05 02:35 | 43.92505 | 75.05775 | 35099 ft | 481 kts | 97° |
| 2026-05-05 02:35 | 43.91659 | 75.15014 | 35105 ft | 481 kts | 96° |
| 2026-05-05 02:36 | 43.90809 | 75.24222 | 35109 ft | 480 kts | 97° |
| 2026-05-05 02:36 | 43.89959 | 75.33352 | 35111 ft | 480 kts | 97° |
| 2026-05-05 02:37 | 43.89097 | 75.42530 | 35107 ft | 479 kts | 97° |
| 2026-05-05 02:37 | 43.88227 | 75.51703 | 35109 ft | 479 kts | 97° |
| 2026-05-05 02:38 | 43.87352 | 75.60855 | 35113 ft | 479 kts | 97° |
| 2026-05-05 02:38 | 43.86468 | 75.70028 | 35112 ft | 480 kts | 97° |
| 2026-05-05 02:39 | 43.85581 | 75.79148 | 35113 ft | 481 kts | 97° |
| 2026-05-05 02:39 | 43.84679 | 75.88358 | 35111 ft | 482 kts | 97° |
| 2026-05-05 02:40 | 43.83769 | 75.97579 | 35110 ft | 483 kts | 97° |
| 2026-05-05 02:40 | 43.82789 | 76.06788 | 35109 ft | 483 kts | 98° |
| 2026-05-05 02:41 | 43.81685 | 76.15968 | 35114 ft | 483 kts | 99° |
| 2026-05-05 02:41 | 43.80580 | 76.25079 | 35112 ft | 482 kts | 99° |
| 2026-05-05 02:42 | 43.79481 | 76.34231 | 35115 ft | 482 kts | 99° |
| 2026-05-05 02:42 | 43.78383 | 76.43378 | 35112 ft | 482 kts | 99° |
| 2026-05-05 02:43 | 43.77277 | 76.52533 | 35115 ft | 482 kts | 99° |
| 2026-05-05 02:43 | 43.76162 | 76.61687 | 35111 ft | 483 kts | 99° |
| 2026-05-05 02:44 | 43.75045 | 76.70797 | 35107 ft | 483 kts | 99° |
| 2026-05-05 02:44 | 43.73913 | 76.79972 | 35103 ft | 484 kts | 99° |
| 2026-05-05 02:45 | 43.72772 | 76.89149 | 35107 ft | 484 kts | 99° |
| 2026-05-05 02:45 | 43.71624 | 76.98329 | 35097 ft | 484 kts | 99° |
| 2026-05-05 02:46 | 43.70469 | 77.07500 | 35099 ft | 484 kts | 99° |
| 2026-05-05 02:46 | 43.69315 | 77.16619 | 35085 ft | 484 kts | 99° |
| 2026-05-05 02:47 | 43.68135 | 77.25812 | 35092 ft | 485 kts | 100° |
| 2026-05-05 02:47 | 43.66939 | 77.35004 | 35092 ft | 486 kts | 100° |
| 2026-05-05 02:48 | 43.65737 | 77.44200 | 35093 ft | 487 kts | 100° |
| 2026-05-05 02:48 | 43.64732 | 77.51866 | 35091 ft | 487 kts | 100° |
| 2026-05-05 02:49 | 43.63318 | 77.62580 | 35092 ft | 488 kts | 100° |
| 2026-05-05 02:49 | 43.62291 | 77.70311 | 35091 ft | 489 kts | 100° |
| 2026-05-05 02:50 | 43.61063 | 77.79501 | 35093 ft | 489 kts | 100° |
| 2026-05-05 02:50 | 43.59820 | 77.88748 | 35093 ft | 490 kts | 100° |
| 2026-05-05 02:51 | 43.58572 | 77.97985 | 35096 ft | 490 kts | 100° |
| 2026-05-05 02:51 | 43.57414 | 78.07204 | 35091 ft | 490 kts | 96° |
| 2026-05-05 02:52 | 43.57146 | 78.16581 | 35104 ft | 489 kts | 90° |
| 2026-05-05 02:52 | 43.57041 | 78.25990 | 35096 ft | 490 kts | 90° |
| 2026-05-05 02:53 | 43.56898 | 78.35396 | 35093 ft | 490 kts | 91° |
| 2026-05-05 02:53 | 43.56725 | 78.44742 | 35095 ft | 490 kts | 91° |
| 2026-05-05 02:54 | 43.56537 | 78.54149 | 35098 ft | 490 kts | 91° |
| 2026-05-05 02:54 | 43.56343 | 78.63566 | 35101 ft | 490 kts | 91° |
| 2026-05-05 02:55 | 43.56142 | 78.72962 | 35100 ft | 491 kts | 91° |
| 2026-05-05 02:55 | 43.55935 | 78.82324 | 35102 ft | 491 kts | 91° |
| 2026-05-05 02:56 | 43.55720 | 78.91740 | 35099 ft | 491 kts | 91° |
| 2026-05-05 02:56 | 43.55497 | 79.01157 | 35098 ft | 491 kts | 91° |
| 2026-05-05 02:57 | 43.55266 | 79.10567 | 35089 ft | 491 kts | 91° |
| 2026-05-05 02:57 | 43.55031 | 79.19937 | 35102 ft | 491 kts | 91° |
| 2026-05-05 02:58 | 43.54783 | 79.29361 | 35108 ft | 491 kts | 91° |
| 2026-05-05 02:58 | 43.54525 | 79.38790 | 35105 ft | 492 kts | 91° |
| 2026-05-05 02:59 | 43.54261 | 79.48218 | 35100 ft | 493 kts | 92° |
| 2026-05-05 02:59 | 43.53990 | 79.57658 | 35112 ft | 493 kts | 92° |
| 2026-05-05 03:00 | 43.53712 | 79.67121 | 35113 ft | 494 kts | 92° |
| 2026-05-05 03:00 | 43.53426 | 79.76586 | 35118 ft | 495 kts | 92° |
| 2026-05-05 03:01 | 43.53130 | 79.86011 | 35130 ft | 496 kts | 92° |
| 2026-05-05 03:01 | 43.52818 | 79.95506 | 35130 ft | 496 kts | 92° |
| 2026-05-05 03:02 | 43.52499 | 80.05024 | 35126 ft | 497 kts | 92° |
| 2026-05-05 03:02 | 43.52175 | 80.14535 | 35126 ft | 497 kts | 92° |
| 2026-05-05 03:03 | 43.51842 | 80.24056 | 35132 ft | 497 kts | 92° |
| 2026-05-05 03:03 | 43.51505 | 80.33505 | 35134 ft | 497 kts | 92° |
| 2026-05-05 03:04 | 43.51157 | 80.43018 | 35134 ft | 497 kts | 92° |
| 2026-05-05 03:04 | 43.50801 | 80.52538 | 35146 ft | 497 kts | 92° |
| 2026-05-05 03:05 | 43.50438 | 80.62049 | 35149 ft | 497 kts | 92° |
| 2026-05-05 03:05 | 43.50067 | 80.71589 | 35139 ft | 498 kts | 92° |
| 2026-05-05 03:06 | 43.49803 | 80.81072 | 35178 ft | 497 kts | 90° |
| 2026-05-05 03:06 | 43.49705 | 80.90590 | 35243 ft | 497 kts | 90° |
| 2026-05-05 03:07 | 43.49596 | 81.00152 | 35242 ft | 499 kts | 90° |
| 2026-05-05 03:07 | 43.49450 | 81.09661 | 35246 ft | 500 kts | 91° |
| 2026-05-05 03:08 | 43.49283 | 81.19248 | 35253 ft | 501 kts | 91° |
| 2026-05-05 03:08 | 43.49109 | 81.28860 | 35251 ft | 502 kts | 91° |
| 2026-05-05 03:09 | 43.48928 | 81.38484 | 35242 ft | 503 kts | 91° |
| 2026-05-05 03:09 | 43.48740 | 81.48103 | 35241 ft | 502 kts | 91° |
| 2026-05-05 03:10 | 43.48546 | 81.57652 | 35245 ft | 502 kts | 91° |
| 2026-05-05 03:10 | 43.48344 | 81.67257 | 35242 ft | 502 kts | 91° |
| 2026-05-05 03:11 | 43.48125 | 81.76866 | 35246 ft | 501 kts | 92° |
| 2026-05-05 03:11 | 43.47889 | 81.86465 | 35235 ft | 502 kts | 92° |
| 2026-05-05 03:12 | 43.47648 | 81.96098 | 35229 ft | 502 kts | 92° |
| 2026-05-05 03:12 | 43.47403 | 82.05636 | 35237 ft | 502 kts | 92° |
| 2026-05-05 03:13 | 43.47148 | 82.15239 | 35231 ft | 502 kts | 92° |
| 2026-05-05 03:13 | 43.46886 | 82.24845 | 35230 ft | 502 kts | 92° |
| 2026-05-05 03:14 | 43.46615 | 82.34475 | 35234 ft | 502 kts | 92° |
| 2026-05-05 03:14 | 43.46336 | 82.44090 | 35224 ft | 503 kts | 92° |
| 2026-05-05 03:15 | 43.46049 | 82.53712 | 35239 ft | 503 kts | 92° |
| 2026-05-05 03:15 | 43.45755 | 82.63288 | 35224 ft | 504 kts | 92° |
| 2026-05-05 03:16 | 43.45451 | 82.72944 | 35237 ft | 504 kts | 92° |
| 2026-05-05 03:16 | 43.45138 | 82.82596 | 35231 ft | 505 kts | 93° |
| 2026-05-05 03:17 | 43.44820 | 82.92194 | 35259 ft | 505 kts | 93° |
| 2026-05-05 03:17 | 43.44491 | 83.01856 | 35252 ft | 506 kts | 93° |
| 2026-05-05 03:18 | 43.44154 | 83.11526 | 35263 ft | 506 kts | 93° |
| 2026-05-05 03:18 | 43.43808 | 83.21213 | 35257 ft | 507 kts | 93° |
| 2026-05-05 03:19 | 43.43276 | 83.35761 | 35266 ft | 507 kts | 93° |
| 2026-05-05 03:19 | 43.42634 | 83.45394 | 35269 ft | 507 kts | 97° |
| 2026-05-05 03:20 | 43.41788 | 83.55027 | 35271 ft | 508 kts | 97° |
| 2026-05-05 03:20 | 43.40942 | 83.64635 | 35272 ft | 508 kts | 97° |
| 2026-05-05 03:21 | 43.40112 | 83.74269 | 35256 ft | 508 kts | 97° |
| 2026-05-05 03:21 | 43.39281 | 83.83925 | 35273 ft | 508 kts | 97° |
| 2026-05-05 03:22 | 43.38441 | 83.93575 | 35252 ft | 508 kts | 97° |
| 2026-05-05 03:22 | 43.37591 | 84.03228 | 35268 ft | 508 kts | 97° |
| 2026-05-05 03:23 | 43.36733 | 84.12873 | 35262 ft | 508 kts | 97° |
| 2026-05-05 03:23 | 43.35872 | 84.22465 | 35265 ft | 509 kts | 97° |
| 2026-05-05 03:24 | 43.34999 | 84.32115 | 35255 ft | 509 kts | 98° |
| 2026-05-05 03:24 | 43.34108 | 84.41778 | 35248 ft | 509 kts | 98° |
| 2026-05-05 03:25 | 43.33185 | 84.51426 | 35251 ft | 509 kts | 98° |
| 2026-05-05 03:25 | 43.32254 | 84.61080 | 35259 ft | 509 kts | 98° |
| 2026-05-05 03:26 | 43.31319 | 84.70736 | 35243 ft | 510 kts | 98° |
| 2026-05-05 03:26 | 43.30383 | 84.80339 | 35220 ft | 510 kts | 98° |
| 2026-05-05 03:27 | 43.29434 | 84.89976 | 35243 ft | 509 kts | 98° |
| 2026-05-05 03:27 | 43.28475 | 84.99633 | 35240 ft | 509 kts | 98° |
| 2026-05-05 03:28 | 43.27510 | 85.09274 | 35236 ft | 509 kts | 99° |
| 2026-05-05 03:28 | 43.26544 | 85.18845 | 35236 ft | 509 kts | 99° |
| 2026-05-05 03:29 | 43.25562 | 85.28481 | 35228 ft | 509 kts | 99° |
| 2026-05-05 03:29 | 43.24572 | 85.38108 | 35234 ft | 510 kts | 99° |
| 2026-05-05 03:30 | 43.23573 | 85.47745 | 35230 ft | 511 kts | 99° |
| 2026-05-05 03:30 | 43.22563 | 85.57422 | 35224 ft | 512 kts | 99° |
| 2026-05-05 03:31 | 43.21551 | 85.67026 | 35226 ft | 512 kts | 99° |
| 2026-05-05 03:31 | 43.20525 | 85.76699 | 35217 ft | 512 kts | 99° |
| 2026-05-05 03:32 | 43.19491 | 85.86363 | 35231 ft | 511 kts | 99° |
| 2026-05-05 03:32 | 43.19209 | 85.95969 | 35228 ft | 508 kts | 79° |
| 2026-05-05 03:33 | 43.20140 | 86.00643 | 35210 ft | 507 kts | 67° |
| 2026-05-05 03:33 | 43.21724 | 86.04939 | 35231 ft | 504 kts | 54° |
| 2026-05-05 03:33 | 43.25767 | 86.12792 | 35238 ft | 505 kts | 53° |
| 2026-05-05 03:34 | 43.29721 | 86.20819 | 35245 ft | 508 kts | 54° |
| 2026-05-05 03:34 | 43.33646 | 86.28947 | 35214 ft | 511 kts | 54° |
| 2026-05-05 03:35 | 43.37561 | 86.37034 | 35246 ft | 512 kts | 54° |
| 2026-05-05 03:35 | 43.41517 | 86.45222 | 35242 ft | 514 kts | 54° |
| 2026-05-05 03:36 | 43.45483 | 86.53398 | 35260 ft | 511 kts | 54° |
| 2026-05-05 03:36 | 43.49416 | 86.61501 | 35228 ft | 511 kts | 54° |
| 2026-05-05 03:37 | 43.53357 | 86.69640 | 35239 ft | 511 kts | 54° |
| 2026-05-05 03:37 | 43.57278 | 86.77822 | 35233 ft | 511 kts | 54° |
| 2026-05-05 03:38 | 43.60540 | 86.84709 | 35231 ft | 513 kts | 54° |
| 2026-05-05 03:38 | 43.64416 | 86.92906 | 35214 ft | 514 kts | 54° |
| 2026-05-05 03:39 | 43.68334 | 87.01195 | 35210 ft | 515 kts | 54° |
| 2026-05-05 03:39 | 43.72262 | 87.09526 | 35198 ft | 517 kts | 55° |
| 2026-05-05 03:40 | 43.76178 | 87.17878 | 35178 ft | 517 kts | 55° |
| 2026-05-05 03:40 | 43.80075 | 87.26250 | 35197 ft | 517 kts | 55° |
| 2026-05-05 03:41 | 43.83944 | 87.34586 | 35182 ft | 518 kts | 55° |
| 2026-05-05 03:41 | 43.87837 | 87.42988 | 35178 ft | 518 kts | 55° |
| 2026-05-05 03:42 | 43.91757 | 87.51405 | 35177 ft | 518 kts | 52° |
| 2026-05-05 03:42 | 43.96048 | 87.59338 | 35185 ft | 517 kts | 50° |
| 2026-05-05 03:43 | 44.00441 | 87.67255 | 35173 ft | 517 kts | 50° |
| 2026-05-05 03:43 | 44.04806 | 87.75230 | 35160 ft | 518 kts | 50° |
| 2026-05-05 03:44 | 44.09153 | 87.83241 | 35166 ft | 519 kts | 50° |
| 2026-05-05 03:44 | 44.13478 | 87.91227 | 35154 ft | 520 kts | 51° |
| 2026-05-05 03:45 | 44.17079 | 88.00003 | 35168 ft | 524 kts | 66° |
| 2026-05-05 03:45 | 44.19171 | 88.09730 | 35186 ft | 525 kts | 78° |
| 2026-05-05 03:46 | 44.20585 | 88.19729 | 35163 ft | 526 kts | 79° |
| 2026-05-05 03:46 | 44.21995 | 88.29680 | 35162 ft | 527 kts | 78° |
| 2026-05-05 03:47 | 44.23462 | 88.39711 | 35158 ft | 528 kts | 78° |
| 2026-05-05 03:47 | 44.24944 | 88.49756 | 35158 ft | 529 kts | 78° |
| 2026-05-05 03:48 | 44.26420 | 88.59820 | 35148 ft | 529 kts | 78° |
| 2026-05-05 03:48 | 44.27874 | 88.69829 | 35141 ft | 529 kts | 78° |
| 2026-05-05 03:49 | 44.29325 | 88.79898 | 35140 ft | 529 kts | 78° |
| 2026-05-05 03:49 | 44.30768 | 88.89972 | 35131 ft | 529 kts | 78° |
| 2026-05-05 03:50 | 44.32203 | 89.00058 | 35137 ft | 529 kts | 79° |
| 2026-05-05 03:50 | 44.33629 | 89.10148 | 35134 ft | 529 kts | 79° |
| 2026-05-05 03:51 | 44.35039 | 89.20186 | 35138 ft | 529 kts | 79° |
| 2026-05-05 03:51 | 44.36447 | 89.30286 | 35129 ft | 529 kts | 78° |
| 2026-05-05 03:52 | 44.37847 | 89.40392 | 35137 ft | 530 kts | 79° |
| 2026-05-05 03:52 | 44.39242 | 89.50527 | 35128 ft | 530 kts | 79° |
| 2026-05-05 03:53 | 44.40617 | 89.60604 | 35121 ft | 531 kts | 80° |
| 2026-05-05 03:53 | 44.40919 | 89.70887 | 35127 ft | 529 kts | 97° |
| 2026-05-05 03:54 | 44.39445 | 89.80892 | 35124 ft | 524 kts | 110° |
| 2026-05-05 03:54 | 44.37233 | 89.90618 | 35132 ft | 525 kts | 111° |
| 2026-05-05 03:55 | 44.35034 | 90.00351 | 35129 ft | 526 kts | 110° |
| 2026-05-05 03:55 | 44.32876 | 90.10127 | 35133 ft | 526 kts | 110° |
| 2026-05-05 03:56 | 44.30740 | 90.19851 | 35126 ft | 527 kts | 110° |
| 2026-05-05 03:56 | 44.28577 | 90.29654 | 35142 ft | 527 kts | 110° |
| 2026-05-05 03:57 | 44.26404 | 90.39434 | 35115 ft | 528 kts | 110° |
| 2026-05-05 03:57 | 44.24219 | 90.49215 | 35132 ft | 527 kts | 110° |
| 2026-05-05 03:58 | 44.22043 | 90.58916 | 35118 ft | 527 kts | 110° |
| 2026-05-05 03:58 | 44.19847 | 90.68663 | 35126 ft | 525 kts | 110° |
| 2026-05-05 03:59 | 44.17651 | 90.78368 | 35115 ft | 524 kts | 110° |
| 2026-05-05 03:59 | 44.15464 | 90.87995 | 35123 ft | 522 kts | 110° |
| 2026-05-05 04:00 | 44.13258 | 90.97664 | 35140 ft | 522 kts | 110° |
| 2026-05-05 04:00 | 44.11050 | 91.07298 | 35127 ft | 523 kts | 110° |
| 2026-05-05 04:01 | 44.08854 | 91.16882 | 35121 ft | 523 kts | 110° |
| 2026-05-05 04:01 | 44.06641 | 91.26521 | 35123 ft | 522 kts | 110° |
| 2026-05-05 04:02 | 44.04423 | 91.36147 | 35130 ft | 522 kts | 110° |
| 2026-05-05 04:02 | 44.02189 | 91.45766 | 35126 ft | 523 kts | 111° |
| 2026-05-05 04:03 | 43.99918 | 91.55365 | 35121 ft | 523 kts | 111° |
| 2026-05-05 04:03 | 43.97650 | 91.64888 | 35124 ft | 523 kts | 111° |
| 2026-05-05 04:04 | 43.95362 | 91.74482 | 35122 ft | 524 kts | 111° |
| 2026-05-05 04:04 | 43.93062 | 91.84098 | 35129 ft | 524 kts | 111° |
| 2026-05-05 04:05 | 43.90755 | 91.93706 | 35132 ft | 525 kts | 111° |
| 2026-05-05 04:05 | 43.88438 | 92.03313 | 35132 ft | 526 kts | 111° |
| 2026-05-05 04:06 | 43.86119 | 92.12886 | 35126 ft | 526 kts | 111° |
| 2026-05-05 04:06 | 43.83778 | 92.22510 | 35124 ft | 527 kts | 111° |
| 2026-05-05 04:07 | 43.81427 | 92.32130 | 35085 ft | 527 kts | 111° |
| 2026-05-05 04:07 | 43.79069 | 92.41745 | 35093 ft | 527 kts | 112° |
| 2026-05-05 04:08 | 43.76719 | 92.51284 | 35098 ft | 527 kts | 112° |
| 2026-05-05 04:08 | 43.74337 | 92.60913 | 35090 ft | 528 kts | 112° |
| 2026-05-05 04:09 | 43.71948 | 92.70532 | 35082 ft | 529 kts | 112° |
| 2026-05-05 04:09 | 43.69563 | 92.80095 | 35083 ft | 530 kts | 112° |
| 2026-05-05 04:10 | 43.67152 | 92.89729 | 35088 ft | 530 kts | 112° |
| 2026-05-05 04:10 | 43.64729 | 92.99371 | 35092 ft | 531 kts | 112° |
| 2026-05-05 04:11 | 43.62378 | 93.09049 | 35074 ft | 532 kts | 111° |
| 2026-05-05 04:11 | 43.60075 | 93.18761 | 35079 ft | 532 kts | 111° |
| 2026-05-05 04:12 | 43.57759 | 93.28466 | 35052 ft | 532 kts | 112° |
| 2026-05-05 04:12 | 43.55436 | 93.38094 | 35074 ft | 534 kts | 112° |
| 2026-05-05 04:13 | 43.53073 | 93.47824 | 35071 ft | 536 kts | 112° |
| 2026-05-05 04:13 | 43.50693 | 93.57589 | 35071 ft | 538 kts | 112° |
| 2026-05-05 04:14 | 43.48303 | 93.67355 | 35070 ft | 539 kts | 112° |
| 2026-05-05 04:14 | 43.45896 | 93.77153 | 35066 ft | 540 kts | 112° |
| 2026-05-05 04:15 | 43.43496 | 93.86878 | 35048 ft | 540 kts | 112° |
| 2026-05-05 04:15 | 43.41071 | 93.96659 | 35058 ft | 539 kts | 112° |
| 2026-05-05 04:16 | 43.38645 | 94.06415 | 35056 ft | 538 kts | 112° |
| 2026-05-05 04:16 | 43.36221 | 94.16105 | 35069 ft | 539 kts | 112° |
| 2026-05-05 04:17 | 43.33769 | 94.25870 | 35067 ft | 545 kts | 112° |
| 2026-05-05 04:17 | 43.31260 | 94.35812 | 35072 ft | 554 kts | 112° |
| 2026-05-05 04:18 | 43.28731 | 94.45812 | 35064 ft | 555 kts | 112° |
| 2026-05-05 04:18 | 43.26187 | 94.55831 | 35045 ft | 554 kts | 113° |
| 2026-05-05 04:19 | 43.23646 | 94.65790 | 35053 ft | 552 kts | 113° |
| 2026-05-05 04:19 | 43.21101 | 94.75721 | 35027 ft | 551 kts | 113° |
| 2026-05-05 04:20 | 43.18571 | 94.85549 | 35021 ft | 549 kts | 113° |
| 2026-05-05 04:20 | 43.16025 | 94.95410 | 34996 ft | 548 kts | 113° |
| 2026-05-05 04:21 | 43.13076 | 95.04998 | 34996 ft | 544 kts | 128° |
| 2026-05-05 04:21 | 43.08227 | 95.12777 | 34991 ft | 532 kts | 148° |
| 2026-05-05 04:22 | 43.05276 | 95.15724 | 35005 ft | 520 kts | 155° |
| 2026-05-05 04:22 | 43.02278 | 95.18404 | 34987 ft | 522 kts | 155° |
| 2026-05-05 04:22 | 42.96188 | 95.23885 | 34984 ft | 524 kts | 155° |
| 2026-05-05 04:23 | 42.90138 | 95.29451 | 34952 ft | 524 kts | 155° |
| 2026-05-05 04:23 | 42.84131 | 95.35031 | 34959 ft | 519 kts | 155° |
| 2026-05-05 04:24 | 42.78184 | 95.40533 | 34970 ft | 520 kts | 155° |
| 2026-05-05 04:25 | 42.69187 | 95.48818 | 34961 ft | 521 kts | 155° |
| 2026-05-05 04:25 | 42.64195 | 95.53405 | 34948 ft | 520 kts | 155° |
| 2026-05-05 04:26 | 42.57217 | 95.59801 | 34958 ft | 520 kts | 155° |
| 2026-05-05 04:26 | 42.52182 | 95.64405 | 34958 ft | 520 kts | 155° |
| 2026-05-05 04:27 | 42.46221 | 95.69846 | 34920 ft | 520 kts | 155° |
| 2026-05-05 04:27 | 42.40745 | 95.76327 | 34953 ft | 541 kts | 129° |
| 2026-05-05 04:27 | 42.39029 | 95.80909 | 34968 ft | 553 kts | 112° |
| 2026-05-05 04:28 | 42.38245 | 95.86029 | 34958 ft | 559 kts | 93° |
| 2026-05-05 04:28 | 42.38124 | 95.96536 | 34968 ft | 561 kts | 91° |
| 2026-05-05 04:29 | 42.37967 | 96.07055 | 34976 ft | 565 kts | 92° |
| 2026-05-05 04:29 | 42.37694 | 96.17706 | 34976 ft | 567 kts | 93° |
| 2026-05-05 04:30 | 42.37366 | 96.28408 | 34971 ft | 568 kts | 93° |
| 2026-05-05 04:30 | 42.37030 | 96.39074 | 34961 ft | 567 kts | 93° |
| 2026-05-05 04:31 | 42.36696 | 96.49670 | 34974 ft | 566 kts | 93° |
| 2026-05-05 04:31 | 42.36355 | 96.60297 | 34952 ft | 565 kts | 93° |
| 2026-05-05 04:32 | 42.36005 | 96.70919 | 34939 ft | 564 kts | 93° |
| 2026-05-05 04:32 | 42.35644 | 96.81525 | 34946 ft | 564 kts | 93° |
| 2026-05-05 04:33 | 42.35273 | 96.92129 | 34938 ft | 564 kts | 93° |
| 2026-05-05 04:33 | 42.34891 | 97.02735 | 34924 ft | 565 kts | 93° |
| 2026-05-05 04:34 | 42.34502 | 97.13319 | 34926 ft | 566 kts | 93° |
| 2026-05-05 04:34 | 42.34100 | 97.23961 | 34917 ft | 566 kts | 93° |
| 2026-05-05 04:35 | 42.33689 | 97.34599 | 34903 ft | 567 kts | 94° |
| 2026-05-05 04:35 | 42.33266 | 97.45267 | 34904 ft | 567 kts | 94° |
| 2026-05-05 04:36 | 42.32834 | 97.55927 | 34902 ft | 568 kts | 94° |
| 2026-05-05 04:36 | 42.32396 | 97.66509 | 34881 ft | 568 kts | 94° |
| 2026-05-05 04:37 | 42.31944 | 97.77159 | 34888 ft | 568 kts | 94° |
| 2026-05-05 04:37 | 42.31482 | 97.87823 | 34883 ft | 568 kts | 94° |
| 2026-05-05 04:38 | 42.31012 | 97.98432 | 34862 ft | 568 kts | 94° |
| 2026-05-05 04:38 | 42.30531 | 98.09096 | 34865 ft | 568 kts | 94° |
| 2026-05-05 04:39 | 42.30040 | 98.19759 | 34857 ft | 568 kts | 94° |
| 2026-05-05 04:39 | 42.29541 | 98.30421 | 34849 ft | 568 kts | 94° |
| 2026-05-05 04:40 | 42.29012 | 98.41060 | 34833 ft | 567 kts | 95° |
| 2026-05-05 04:40 | 42.28460 | 98.51607 | 34830 ft | 566 kts | 95° |
| 2026-05-05 04:41 | 42.27896 | 98.62225 | 34837 ft | 566 kts | 95° |
| 2026-05-05 04:41 | 42.27327 | 98.72840 | 34826 ft | 566 kts | 95° |
| 2026-05-05 04:42 | 42.26751 | 98.83452 | 34812 ft | 566 kts | 95° |
| 2026-05-05 04:42 | 42.26165 | 98.94066 | 34810 ft | 566 kts | 95° |
| 2026-05-05 04:43 | 42.25568 | 99.04669 | 34802 ft | 566 kts | 95° |
| 2026-05-05 04:43 | 42.24966 | 99.15216 | 34806 ft | 567 kts | 95° |
| 2026-05-05 04:44 | 42.24347 | 99.25856 | 34793 ft | 569 kts | 95° |
| 2026-05-05 04:44 | 42.23717 | 99.36518 | 34794 ft | 570 kts | 95° |
| 2026-05-05 04:45 | 42.23080 | 99.47155 | 34787 ft | 571 kts | 95° |
| 2026-05-05 04:45 | 42.22428 | 99.57861 | 34757 ft | 571 kts | 95° |
| 2026-05-05 04:46 | 42.21767 | 99.68544 | 34764 ft | 571 kts | 95° |
| 2026-05-05 04:46 | 42.21096 | 99.79229 | 34759 ft | 572 kts | 95° |
| 2026-05-05 04:47 | 42.20414 | 99.89923 | 34750 ft | 571 kts | 95° |
| 2026-05-05 04:47 | 42.19728 | 100.00540 | 34741 ft | 571 kts | 95° |
| 2026-05-05 04:48 | 42.19028 | 100.11208 | 34739 ft | 571 kts | 95° |
| 2026-05-05 04:48 | 42.18318 | 100.21883 | 34738 ft | 571 kts | 96° |
| 2026-05-05 04:49 | 42.17598 | 100.32553 | 34728 ft | 571 kts | 96° |
| 2026-05-05 04:49 | 42.16873 | 100.43148 | 34723 ft | 571 kts | 96° |
| 2026-05-05 04:50 | 42.16134 | 100.53800 | 34722 ft | 571 kts | 96° |
| 2026-05-05 04:50 | 42.15385 | 100.64461 | 34714 ft | 571 kts | 96° |
| 2026-05-05 04:51 | 42.14626 | 100.75123 | 34714 ft | 571 kts | 96° |
| 2026-05-05 04:51 | 42.13862 | 100.85725 | 34715 ft | 571 kts | 96° |
| 2026-05-05 04:52 | 42.13085 | 100.96376 | 34707 ft | 571 kts | 96° |
| 2026-05-05 04:52 | 42.11787 | 101.06922 | 34710 ft | 569 kts | 107° |
| 2026-05-05 04:53 | 42.09298 | 101.16996 | 34712 ft | 566 kts | 113° |
| 2026-05-05 04:53 | 42.06589 | 101.26969 | 34702 ft | 567 kts | 113° |
| 2026-05-05 04:54 | 42.03924 | 101.36954 | 34700 ft | 567 kts | 112° |
| 2026-05-05 04:54 | 42.01293 | 101.46930 | 34699 ft | 566 kts | 112° |
| 2026-05-05 04:55 | 41.98653 | 101.56928 | 34701 ft | 566 kts | 112° |
| 2026-05-05 04:55 | 41.96024 | 101.66820 | 34701 ft | 566 kts | 112° |
| 2026-05-05 04:56 | 41.93361 | 101.76787 | 34704 ft | 565 kts | 112° |
| 2026-05-05 04:56 | 41.90693 | 101.86731 | 34703 ft | 565 kts | 112° |
| 2026-05-05 04:57 | 41.88018 | 101.96664 | 34703 ft | 565 kts | 112° |
| 2026-05-05 04:57 | 41.85352 | 102.06523 | 34704 ft | 565 kts | 112° |
| 2026-05-05 04:58 | 41.82656 | 102.16453 | 34700 ft | 565 kts | 112° |
| 2026-05-05 04:58 | 41.79957 | 102.26354 | 34698 ft | 565 kts | 112° |
| 2026-05-05 04:59 | 41.77251 | 102.36244 | 34698 ft | 565 kts | 112° |
| 2026-05-05 04:59 | 41.74536 | 102.46127 | 34694 ft | 565 kts | 112° |
| 2026-05-05 05:00 | 41.71813 | 102.56005 | 34696 ft | 565 kts | 112° |
| 2026-05-05 05:00 | 41.69100 | 102.65812 | 34693 ft | 564 kts | 112° |
| 2026-05-05 05:01 | 41.66365 | 102.75645 | 34697 ft | 564 kts | 113° |
| 2026-05-05 05:01 | 41.63615 | 102.85480 | 34695 ft | 564 kts | 112° |
| 2026-05-05 05:02 | 41.60877 | 102.95259 | 34685 ft | 564 kts | 112° |
| 2026-05-05 05:02 | 41.58107 | 103.05090 | 34689 ft | 564 kts | 113° |
| 2026-05-05 05:03 | 41.55322 | 103.14895 | 34684 ft | 564 kts | 112° |
| 2026-05-05 05:03 | 41.52532 | 103.24682 | 34679 ft | 564 kts | 112° |
| 2026-05-05 05:04 | 41.49738 | 103.34464 | 34680 ft | 564 kts | 112° |
| 2026-05-05 05:04 | 41.46937 | 103.44236 | 34681 ft | 564 kts | 112° |
| 2026-05-05 05:05 | 41.44139 | 103.53957 | 34682 ft | 564 kts | 112° |
| 2026-05-05 05:05 | 41.41320 | 103.63716 | 34678 ft | 564 kts | 112° |
| 2026-05-05 05:06 | 41.38489 | 103.73482 | 34673 ft | 565 kts | 112° |
| 2026-05-05 05:06 | 41.35645 | 103.83252 | 34645 ft | 564 kts | 112° |
| 2026-05-05 05:07 | 41.32817 | 103.92934 | 34667 ft | 563 kts | 112° |
| 2026-05-05 05:07 | 41.29963 | 104.02665 | 34667 ft | 563 kts | 112° |
| 2026-05-05 05:08 | 41.27122 | 104.12316 | 34665 ft | 563 kts | 112° |
| 2026-05-05 05:08 | 41.24261 | 104.21997 | 34678 ft | 563 kts | 112° |
| 2026-05-05 05:09 | 41.21393 | 104.31672 | 34673 ft | 563 kts | 112° |
| 2026-05-05 05:09 | 41.18511 | 104.41357 | 34672 ft | 563 kts | 112° |
| 2026-05-05 05:10 | 41.15619 | 104.51039 | 34671 ft | 564 kts | 112° |
| 2026-05-05 05:10 | 41.12720 | 104.60714 | 34671 ft | 564 kts | 112° |
| 2026-05-05 05:11 | 41.09831 | 104.70321 | 34679 ft | 564 kts | 113° |
| 2026-05-05 05:11 | 41.06733 | 104.79889 | 34672 ft | 563 kts | 116° |
| 2026-05-05 05:12 | 41.04017 | 104.87745 | 34674 ft | 563 kts | 116° |
| 2026-05-05 05:12 | 41.00751 | 104.97185 | 34678 ft | 563 kts | 116° |
| 2026-05-05 05:13 | 40.97529 | 105.06618 | 34672 ft | 562 kts | 115° |
| 2026-05-05 05:13 | 40.94328 | 105.16031 | 34679 ft | 560 kts | 115° |
| 2026-05-05 05:14 | 40.91138 | 105.25375 | 34679 ft | 559 kts | 115° |
| 2026-05-05 05:14 | 40.87927 | 105.34736 | 34682 ft | 559 kts | 115° |
| 2026-05-05 05:15 | 40.84707 | 105.44088 | 34683 ft | 558 kts | 115° |
| 2026-05-05 05:15 | 40.81480 | 105.53429 | 34689 ft | 558 kts | 115° |
| 2026-05-05 05:16 | 40.78246 | 105.62761 | 34696 ft | 559 kts | 115° |
| 2026-05-05 05:16 | 40.75021 | 105.72033 | 34700 ft | 559 kts | 115° |
| 2026-05-05 05:17 | 40.71771 | 105.81352 | 34694 ft | 559 kts | 115° |
| 2026-05-05 05:17 | 40.68513 | 105.90663 | 34701 ft | 559 kts | 115° |
| 2026-05-05 05:18 | 40.65238 | 105.99989 | 34678 ft | 560 kts | 115° |
| 2026-05-05 05:18 | 40.61966 | 106.09276 | 34702 ft | 558 kts | 115° |
| 2026-05-05 05:19 | 40.58712 | 106.18484 | 34700 ft | 557 kts | 115° |
| 2026-05-05 05:19 | 40.55441 | 106.27711 | 34691 ft | 556 kts | 115° |
| 2026-05-05 05:20 | 40.52170 | 106.36918 | 34705 ft | 553 kts | 115° |
| 2026-05-05 05:20 | 40.48894 | 106.46089 | 34694 ft | 554 kts | 115° |
| 2026-05-05 05:21 | 40.45625 | 106.55218 | 34693 ft | 554 kts | 115° |
| 2026-05-05 05:21 | 40.42335 | 106.64381 | 34682 ft | 555 kts | 115° |
| 2026-05-05 05:22 | 40.39028 | 106.73568 | 34678 ft | 556 kts | 115° |
| 2026-05-05 05:22 | 40.35736 | 106.82689 | 34696 ft | 557 kts | 115° |
| 2026-05-05 05:23 | 40.32644 | 106.91974 | 34674 ft | 554 kts | 104° |
| 2026-05-05 05:23 | 40.31593 | 107.01884 | 34695 ft | 546 kts | 85° |
| 2026-05-05 05:23 | 40.31896 | 107.06801 | 34683 ft | 537 kts | 74° |
| 2026-05-05 05:24 | 40.32549 | 107.11614 | 34702 ft | 537 kts | 73° |
| 2026-05-05 05:24 | 40.33881 | 107.21268 | 34687 ft | 538 kts | 74° |
| 2026-05-05 05:25 | 40.35133 | 107.30962 | 34678 ft | 540 kts | 75° |
| 2026-05-05 05:25 | 40.36321 | 107.40637 | 34683 ft | 540 kts | 75° |
| 2026-05-05 05:26 | 40.37499 | 107.50353 | 34675 ft | 539 kts | 75° |
| 2026-05-05 05:26 | 40.38675 | 107.60055 | 34671 ft | 538 kts | 75° |
| 2026-05-05 05:27 | 40.39843 | 107.69738 | 34670 ft | 537 kts | 75° |
| 2026-05-05 05:27 | 40.41579 | 107.84258 | 34670 ft | 536 kts | 75° |
| 2026-05-05 05:28 | 40.42723 | 107.93909 | 34664 ft | 534 kts | 75° |
| 2026-05-05 05:28 | 40.43852 | 108.03554 | 34669 ft | 533 kts | 75° |
| 2026-05-05 05:29 | 40.44952 | 108.13136 | 34661 ft | 533 kts | 75° |
| 2026-05-05 05:29 | 40.46050 | 108.22757 | 34665 ft | 533 kts | 76° |
| 2026-05-05 05:30 | 40.47144 | 108.32395 | 34670 ft | 533 kts | 76° |
| 2026-05-05 05:30 | 40.48234 | 108.42052 | 34667 ft | 534 kts | 76° |
| 2026-05-05 05:31 | 40.49316 | 108.51719 | 34663 ft | 535 kts | 76° |
| 2026-05-05 05:31 | 40.50380 | 108.61312 | 34656 ft | 534 kts | 76° |
| 2026-05-05 05:32 | 40.51443 | 108.70967 | 34659 ft | 533 kts | 76° |
| 2026-05-05 05:32 | 40.52496 | 108.80605 | 34671 ft | 531 kts | 77° |
| 2026-05-05 05:33 | 40.53538 | 108.90219 | 34664 ft | 530 kts | 77° |
| 2026-05-05 05:33 | 40.54568 | 108.99799 | 34671 ft | 528 kts | 77° |
| 2026-05-05 05:34 | 40.55581 | 109.09295 | 34669 ft | 528 kts | 77° |
| 2026-05-05 05:34 | 40.56593 | 109.18852 | 34686 ft | 526 kts | 77° |
| 2026-05-05 05:35 | 40.57594 | 109.28387 | 34693 ft | 526 kts | 78° |
| 2026-05-05 05:35 | 40.58587 | 109.37917 | 34687 ft | 526 kts | 78° |
| 2026-05-05 05:36 | 40.59573 | 109.47464 | 34704 ft | 525 kts | 78° |
| 2026-05-05 05:36 | 40.60549 | 109.56994 | 34713 ft | 525 kts | 78° |
| 2026-05-05 05:37 | 40.61511 | 109.66454 | 34715 ft | 524 kts | 78° |
| 2026-05-05 05:37 | 40.62470 | 109.75975 | 34718 ft | 524 kts | 78° |
| 2026-05-05 05:38 | 40.63422 | 109.85499 | 34726 ft | 524 kts | 78° |
| 2026-05-05 05:38 | 40.64362 | 109.94973 | 34736 ft | 524 kts | 79° |
| 2026-05-05 05:39 | 40.64783 | 110.04608 | 34742 ft | 528 kts | 88° |
| 2026-05-05 05:39 | 40.64658 | 110.14290 | 34758 ft | 529 kts | 88° |
| 2026-05-05 05:40 | 40.64553 | 110.23989 | 34761 ft | 529 kts | 88° |
| 2026-05-05 05:40 | 40.64489 | 110.33671 | 34763 ft | 529 kts | 88° |
| 2026-05-05 05:41 | 40.64423 | 110.43295 | 34772 ft | 529 kts | 88° |
| 2026-05-05 05:41 | 40.64342 | 110.52977 | 34788 ft | 528 kts | 88° |
| 2026-05-05 05:42 | 40.64249 | 110.62640 | 34787 ft | 527 kts | 88° |
| 2026-05-05 05:42 | 40.64155 | 110.72218 | 34806 ft | 525 kts | 88° |
| 2026-05-05 05:43 | 40.64049 | 110.81852 | 34799 ft | 526 kts | 88° |
| 2026-05-05 05:43 | 40.63945 | 110.91494 | 34801 ft | 525 kts | 88° |
| 2026-05-05 05:44 | 40.63829 | 111.01112 | 34799 ft | 525 kts | 88° |
| 2026-05-05 05:44 | 40.63704 | 111.10683 | 34801 ft | 525 kts | 88° |
| 2026-05-05 05:45 | 40.63571 | 111.20301 | 34809 ft | 526 kts | 89° |
| 2026-05-05 05:45 | 40.63427 | 111.29949 | 34809 ft | 526 kts | 89° |
| 2026-05-05 05:46 | 40.63278 | 111.39589 | 34810 ft | 526 kts | 89° |
| 2026-05-05 05:46 | 40.63123 | 111.49170 | 34809 ft | 526 kts | 89° |
| 2026-05-05 05:47 | 40.62960 | 111.58806 | 34817 ft | 527 kts | 89° |
| 2026-05-05 05:47 | 40.62789 | 111.68466 | 34814 ft | 527 kts | 89° |
| 2026-05-05 05:48 | 40.62611 | 111.78064 | 34826 ft | 527 kts | 89° |
| 2026-05-05 05:48 | 40.62425 | 111.87706 | 34825 ft | 527 kts | 89° |
| 2026-05-05 05:49 | 40.62321 | 111.97351 | 34837 ft | 526 kts | 89° |
| 2026-05-05 05:49 | 40.62031 | 112.06982 | 34836 ft | 526 kts | 90° |
| 2026-05-05 05:50 | 40.61786 | 112.16627 | 34836 ft | 526 kts | 89° |
| 2026-05-05 05:50 | 40.61579 | 112.26244 | 34824 ft | 525 kts | 89° |
| 2026-05-05 05:51 | 40.61351 | 112.35806 | 34834 ft | 525 kts | 89° |
| 2026-05-05 05:51 | 40.61110 | 112.45414 | 34835 ft | 526 kts | 89° |
| 2026-05-05 05:52 | 40.60812 | 112.55051 | 34832 ft | 527 kts | 91° |
| 2026-05-05 05:52 | 40.60212 | 112.64672 | 34810 ft | 528 kts | 92° |
| 2026-05-05 05:53 | 40.59623 | 112.74244 | 34805 ft | 528 kts | 92° |
| 2026-05-05 05:53 | 40.58845 | 112.83876 | 34818 ft | 529 kts | 94° |
| 2026-05-05 05:54 | 40.58162 | 112.93522 | 34794 ft | 529 kts | 92° |
| 2026-05-05 05:54 | 40.57552 | 113.03171 | 34786 ft | 529 kts | 92° |
| 2026-05-05 05:55 | 40.56919 | 113.12833 | 34781 ft | 530 kts | 92° |
| 2026-05-05 05:55 | 40.56261 | 113.22441 | 34779 ft | 530 kts | 92° |
| 2026-05-05 05:56 | 40.55588 | 113.32099 | 34767 ft | 531 kts | 92° |
| 2026-05-05 05:56 | 40.54906 | 113.41769 | 34764 ft | 530 kts | 92° |
| 2026-05-05 05:57 | 40.54216 | 113.51432 | 34769 ft | 530 kts | 92° |
| 2026-05-05 05:57 | 40.53526 | 113.61033 | 34757 ft | 529 kts | 92° |
| 2026-05-05 05:58 | 40.52822 | 113.70686 | 34764 ft | 529 kts | 92° |
| 2026-05-05 05:58 | 40.52110 | 113.80332 | 34753 ft | 530 kts | 92° |
| 2026-05-05 05:59 | 40.51398 | 113.89901 | 34743 ft | 529 kts | 92° |
| 2026-05-05 05:59 | 40.50673 | 113.99533 | 34738 ft | 529 kts | 92° |
| 2026-05-05 06:00 | 40.50222 | 114.07520 | 34730 ft | 526 kts | 89° |
| 2026-05-05 06:00 | 40.49876 | 114.17105 | 34735 ft | 524 kts | 88° |
| 2026-05-05 06:01 | 40.49518 | 114.26689 | 34727 ft | 525 kts | 89° |
| 2026-05-05 06:01 | 40.49107 | 114.36279 | 34728 ft | 525 kts | 89° |
| 2026-05-05 06:02 | 40.48670 | 114.45853 | 34720 ft | 524 kts | 89° |
| 2026-05-05 06:02 | 40.48232 | 114.55334 | 34733 ft | 523 kts | 89° |
| 2026-05-05 06:03 | 40.47786 | 114.64871 | 34727 ft | 522 kts | 89° |
| 2026-05-05 06:03 | 40.47333 | 114.74408 | 34718 ft | 522 kts | 89° |
| 2026-05-05 06:04 | 40.46876 | 114.83899 | 34733 ft | 521 kts | 89° |
| 2026-05-05 06:04 | 40.46408 | 114.93402 | 34733 ft | 521 kts | 89° |
| 2026-05-05 06:05 | 40.45940 | 115.02907 | 34741 ft | 521 kts | 90° |
| 2026-05-05 06:05 | 40.45450 | 115.12407 | 34728 ft | 522 kts | 90° |
| 2026-05-05 06:06 | 40.44958 | 115.21918 | 34717 ft | 523 kts | 90° |
| 2026-05-05 06:06 | 40.44460 | 115.31437 | 34746 ft | 521 kts | 90° |
| 2026-05-05 06:07 | 40.43960 | 115.40853 | 34751 ft | 518 kts | 90° |
| 2026-05-05 06:07 | 40.43452 | 115.50293 | 34750 ft | 516 kts | 90° |
| 2026-05-05 06:08 | 40.42857 | 115.59673 | 34762 ft | 515 kts | 92° |
| 2026-05-05 06:08 | 40.42072 | 115.68978 | 34775 ft | 515 kts | 93° |
| 2026-05-05 06:09 | 40.41271 | 115.78317 | 34794 ft | 514 kts | 93° |
| 2026-05-05 06:09 | 40.40496 | 115.87651 | 34791 ft | 515 kts | 92° |
| 2026-05-05 06:10 | 40.39724 | 115.97015 | 34817 ft | 517 kts | 92° |
| 2026-05-05 06:10 | 40.38941 | 116.06423 | 34811 ft | 519 kts | 93° |
| 2026-05-05 06:11 | 40.38145 | 116.15858 | 34818 ft | 521 kts | 93° |
| 2026-05-05 06:11 | 40.37346 | 116.25257 | 34808 ft | 521 kts | 93° |
| 2026-05-05 06:12 | 40.36534 | 116.34699 | 34833 ft | 520 kts | 93° |
| 2026-05-05 06:12 | 40.35714 | 116.44137 | 34820 ft | 520 kts | 93° |
| 2026-05-05 06:13 | 40.34889 | 116.53556 | 34824 ft | 519 kts | 93° |
| 2026-05-05 06:13 | 40.34018 | 116.62888 | 34820 ft | 518 kts | 99° |
| 2026-05-05 06:14 | 40.32856 | 116.67357 | 34821 ft | 521 kts | 118° |
| 2026-05-05 06:14 | 40.30761 | 116.71210 | 34821 ft | 520 kts | 136° |
| 2026-05-05 06:14 | 40.27969 | 116.74182 | 34835 ft | 516 kts | 150° |
| 2026-05-05 06:14 | 40.24793 | 116.76327 | 34825 ft | 512 kts | 163° |
| 2026-05-05 06:15 | 40.21375 | 116.77448 | 34828 ft | 503 kts | 176° |
| 2026-05-05 06:15 | 40.17898 | 116.78068 | 34823 ft | 504 kts | 177° |
| 2026-05-05 06:15 | 40.10903 | 116.79259 | 34827 ft | 508 kts | 176° |
| 2026-05-05 06:16 | 40.03869 | 116.80593 | 34830 ft | 512 kts | 175° |
| 2026-05-05 06:16 | 39.96861 | 116.82003 | 34821 ft | 513 kts | 175° |
| 2026-05-05 06:17 | 39.89805 | 116.83424 | 34816 ft | 512 kts | 175° |
| 2026-05-05 06:17 | 39.82770 | 116.84827 | 34816 ft | 511 kts | 175° |
| 2026-05-05 06:18 | 39.75746 | 116.86239 | 34901 ft | 512 kts | 175° |
| 2026-05-05 06:18 | 39.72216 | 116.86970 | 35225 ft | 512 kts | 175° |
| 2026-05-05 06:18 | 39.68714 | 116.87704 | 35702 ft | 507 kts | 175° |
| 2026-05-05 06:19 | 39.65238 | 116.88432 | 36116 ft | 505 kts | 175° |
| 2026-05-05 06:19 | 39.61768 | 116.89154 | 36405 ft | 505 kts | 175° |
| 2026-05-05 06:19 | 39.58333 | 116.89865 | 36650 ft | 506 kts | 175° |
| 2026-05-05 06:19 | 39.54849 | 116.90584 | 36735 ft | 508 kts | 174° |
| 2026-05-05 06:20 | 39.47838 | 116.92028 | 36812 ft | 509 kts | 174° |
| 2026-05-05 06:20 | 39.40855 | 116.93469 | 36805 ft | 506 kts | 174° |
| 2026-05-05 06:21 | 39.33907 | 116.94897 | 36797 ft | 504 kts | 174° |
| 2026-05-05 06:21 | 39.27027 | 116.96309 | 36811 ft | 503 kts | 174° |
| 2026-05-05 06:22 | 39.20123 | 116.97881 | 36791 ft | 505 kts | 165° |
| 2026-05-05 06:22 | 39.16940 | 116.99805 | 36834 ft | 509 kts | 146° |
| 2026-05-05 06:22 | 39.14302 | 117.02847 | 36834 ft | 512 kts | 128° |
| 2026-05-05 06:23 | 39.12346 | 117.06675 | 36836 ft | 511 kts | 114° |
| 2026-05-05 06:23 | 39.11149 | 117.10897 | 36815 ft | 508 kts | 98° |
| 2026-05-05 06:23 | 39.10120 | 117.19882 | 36842 ft | 509 kts | 95° |
| 2026-05-05 06:24 | 39.09032 | 117.28945 | 36861 ft | 514 kts | 97° |
| 2026-05-05 06:24 | 39.07910 | 117.38057 | 36843 ft | 514 kts | 92° |
| 2026-05-05 06:25 | 39.07686 | 117.47210 | 36852 ft | 511 kts | 87° |
| 2026-05-05 06:25 | 39.07648 | 117.56336 | 36838 ft | 509 kts | 87° |
| 2026-05-05 06:26 | 39.07562 | 117.65377 | 36834 ft | 507 kts | 88° |
| 2026-05-05 06:26 | 39.07438 | 117.74430 | 36835 ft | 505 kts | 88° |
| 2026-05-05 06:27 | 39.07239 | 117.87979 | 36838 ft | 503 kts | 88° |
| 2026-05-05 06:28 | 39.07103 | 117.96917 | 36840 ft | 502 kts | 88° |
| 2026-05-05 06:28 | 39.06676 | 118.05918 | 36839 ft | 505 kts | 97° |
| 2026-05-05 06:29 | 39.05279 | 118.14758 | 36850 ft | 507 kts | 100° |
| 2026-05-05 06:29 | 39.03797 | 118.23638 | 36846 ft | 508 kts | 100° |
| 2026-05-05 06:30 | 39.02359 | 118.32558 | 36849 ft | 509 kts | 99° |
| 2026-05-05 06:30 | 39.00937 | 118.41482 | 36860 ft | 510 kts | 99° |
| 2026-05-05 06:31 | 38.99498 | 118.50423 | 36854 ft | 510 kts | 100° |
| 2026-05-05 06:31 | 38.98051 | 118.59365 | 36855 ft | 510 kts | 100° |
| 2026-05-05 06:32 | 38.96602 | 118.68304 | 36867 ft | 510 kts | 100° |
| 2026-05-05 06:32 | 38.95160 | 118.77162 | 36858 ft | 509 kts | 100° |
| 2026-05-05 06:33 | 38.93705 | 118.86058 | 36861 ft | 508 kts | 100° |
| 2026-05-05 06:33 | 38.92246 | 118.94944 | 36866 ft | 507 kts | 100° |
| 2026-05-05 06:34 | 38.90783 | 119.03798 | 36873 ft | 506 kts | 101° |
| 2026-05-05 06:34 | 38.89305 | 119.12622 | 36866 ft | 505 kts | 101° |
| 2026-05-05 06:35 | 38.87820 | 119.21434 | 36870 ft | 504 kts | 101° |
| 2026-05-05 06:35 | 38.86344 | 119.30170 | 36879 ft | 503 kts | 101° |
| 2026-05-05 06:36 | 38.84856 | 119.38947 | 36876 ft | 503 kts | 101° |
| 2026-05-05 06:36 | 38.83362 | 119.47720 | 36878 ft | 502 kts | 101° |
| 2026-05-05 06:37 | 38.81864 | 119.56473 | 36888 ft | 502 kts | 101° |
| 2026-05-05 06:37 | 38.80370 | 119.65161 | 36888 ft | 502 kts | 101° |
| 2026-05-05 06:38 | 38.78861 | 119.73903 | 36893 ft | 502 kts | 101° |
| 2026-05-05 06:38 | 38.76508 | 119.82274 | 36903 ft | 502 kts | 121° |
| 2026-05-05 06:39 | 38.72009 | 119.89087 | 36904 ft | 501 kts | 141° |
| 2026-05-05 06:39 | 38.67084 | 119.95279 | 36911 ft | 501 kts | 123° |
| 2026-05-05 06:39 | 38.65404 | 119.99186 | 36907 ft | 500 kts | 111° |
| 2026-05-05 06:40 | 38.64363 | 120.03417 | 36904 ft | 498 kts | 99° |
| 2026-05-05 06:40 | 38.63113 | 120.12175 | 36910 ft | 500 kts | 99° |
| 2026-05-05 06:41 | 38.61754 | 120.20866 | 36911 ft | 502 kts | 100° |
| 2026-05-05 06:41 | 38.60316 | 120.29610 | 36917 ft | 503 kts | 100° |
| 2026-05-05 06:42 | 38.58875 | 120.38366 | 36895 ft | 503 kts | 100° |
| 2026-05-05 06:42 | 38.57436 | 120.47108 | 36915 ft | 501 kts | 100° |
| 2026-05-05 06:43 | 38.55995 | 120.55824 | 36919 ft | 500 kts | 100° |
| 2026-05-05 06:43 | 38.54581 | 120.64467 | 36923 ft | 498 kts | 100° |
| 2026-05-05 06:44 | 38.53177 | 120.73116 | 36908 ft | 497 kts | 100° |
| 2026-05-05 06:44 | 38.51765 | 120.81764 | 36921 ft | 497 kts | 100° |
| 2026-05-05 06:45 | 38.50344 | 120.90407 | 36926 ft | 497 kts | 100° |
| 2026-05-05 06:45 | 38.48916 | 120.99047 | 36947 ft | 497 kts | 100° |
| 2026-05-05 06:46 | 38.47726 | 121.06228 | 36929 ft | 497 kts | 100° |
| 2026-05-05 06:46 | 38.46287 | 121.14863 | 36937 ft | 497 kts | 100° |
| 2026-05-05 06:47 | 38.44736 | 121.24934 | 36941 ft | 497 kts | 99° |
| 2026-05-05 06:47 | 38.43585 | 121.32133 | 36946 ft | 498 kts | 100° |
| 2026-05-05 06:48 | 38.42143 | 121.40776 | 36942 ft | 497 kts | 100° |
| 2026-05-05 06:48 | 38.40716 | 121.49403 | 36949 ft | 497 kts | 100° |
| 2026-05-05 06:49 | 38.39281 | 121.58019 | 36949 ft | 496 kts | 100° |
| 2026-05-05 06:49 | 38.37838 | 121.66642 | 36953 ft | 496 kts | 100° |
| 2026-05-05 06:50 | 38.36404 | 121.75186 | 36963 ft | 495 kts | 100° |
| 2026-05-05 06:50 | 38.34956 | 121.83775 | 36965 ft | 495 kts | 100° |
| 2026-05-05 06:51 | 38.33503 | 121.92357 | 36966 ft | 494 kts | 101° |
| 2026-05-05 06:51 | 38.32046 | 122.00918 | 36974 ft | 494 kts | 101° |
| 2026-05-05 06:52 | 38.30594 | 122.09419 | 36986 ft | 493 kts | 101° |
| 2026-05-05 06:52 | 38.29129 | 122.17958 | 36975 ft | 493 kts | 101° |
| 2026-05-05 06:53 | 38.27663 | 122.26489 | 36976 ft | 492 kts | 100° |
| 2026-05-05 06:53 | 38.26457 | 122.35010 | 36991 ft | 492 kts | 98° |
| 2026-05-05 06:54 | 38.24781 | 122.43451 | 36980 ft | 495 kts | 114° |
| 2026-05-05 06:54 | 38.21003 | 122.50757 | 37000 ft | 497 kts | 134° |
| 2026-05-05 06:55 | 38.16057 | 122.56916 | 37020 ft | 498 kts | 136° |
| 2026-05-05 06:55 | 38.11161 | 122.63116 | 37019 ft | 499 kts | 134° |
| 2026-05-05 06:56 | 38.06292 | 122.69428 | 37017 ft | 501 kts | 134° |
| 2026-05-05 06:56 | 38.01418 | 122.75768 | 37018 ft | 502 kts | 134° |
| 2026-05-05 06:57 | 37.96542 | 122.82097 | 37022 ft | 502 kts | 134° |
| 2026-05-05 06:57 | 37.91660 | 122.88415 | 37024 ft | 501 kts | 134° |
| 2026-05-05 06:58 | 37.86815 | 122.94672 | 37040 ft | 499 kts | 135° |
| 2026-05-05 06:58 | 37.81945 | 123.00948 | 37034 ft | 498 kts | 135° |
| 2026-05-05 06:59 | 37.77073 | 123.07215 | 37044 ft | 499 kts | 135° |
| 2026-05-05 06:59 | 37.72207 | 123.13462 | 37051 ft | 499 kts | 135° |
| 2026-05-05 07:00 | 37.67360 | 123.19675 | 37069 ft | 500 kts | 135° |
| 2026-05-05 07:00 | 37.62465 | 123.25937 | 37058 ft | 500 kts | 135° |
| 2026-05-05 07:01 | 37.57583 | 123.32184 | 37079 ft | 500 kts | 134° |
| 2026-05-05 07:01 | 37.53199 | 123.38982 | 37077 ft | 499 kts | 127° |
| 2026-05-05 07:02 | 37.49099 | 123.45982 | 37063 ft | 499 kts | 127° |
| 2026-05-05 07:02 | 37.44953 | 123.53004 | 37081 ft | 499 kts | 127° |
| 2026-05-05 07:03 | 37.40778 | 123.59997 | 37081 ft | 499 kts | 127° |
| 2026-05-05 07:03 | 37.36591 | 123.66981 | 37081 ft | 500 kts | 127° |
| 2026-05-05 07:04 | 37.32403 | 123.73954 | 37088 ft | 500 kts | 128° |
| 2026-05-05 07:04 | 37.28236 | 123.80884 | 37096 ft | 500 kts | 128° |
| 2026-05-05 07:05 | 37.24041 | 123.87848 | 37096 ft | 500 kts | 128° |
| 2026-05-05 07:05 | 37.19847 | 123.94826 | 37097 ft | 499 kts | 124° |
| 2026-05-05 07:05 | 37.18169 | 123.98624 | 37086 ft | 499 kts | 111° |
| 2026-05-05 07:06 | 37.17160 | 124.02788 | 37103 ft | 498 kts | 101° |
| 2026-05-05 07:06 | 37.16777 | 124.07102 | 37035 ft | 499 kts | 88° |
| 2026-05-05 07:06 | 37.16972 | 124.11437 | 37051 ft | 498 kts | 84° |
| 2026-05-05 07:07 | 37.17452 | 124.20135 | 37011 ft | 499 kts | 86° |
| 2026-05-05 07:07 | 37.17733 | 124.28800 | 37013 ft | 501 kts | 88° |
| 2026-05-05 07:08 | 37.17908 | 124.37547 | 37016 ft | 502 kts | 88° |
| 2026-05-05 07:08 | 37.18105 | 124.46296 | 37020 ft | 502 kts | 88° |
| 2026-05-05 07:09 | 37.18303 | 124.55052 | 37020 ft | 502 kts | 88° |
| 2026-05-05 07:09 | 37.18496 | 124.63829 | 37030 ft | 502 kts | 88° |
| 2026-05-05 07:10 | 37.18681 | 124.72544 | 37027 ft | 502 kts | 88° |
| 2026-05-05 07:10 | 37.18861 | 124.81305 | 37026 ft | 502 kts | 88° |
| 2026-05-05 07:11 | 37.19036 | 124.90058 | 37035 ft | 502 kts | 88° |
| 2026-05-05 07:11 | 37.19212 | 124.98826 | 37034 ft | 502 kts | 88° |
| 2026-05-05 07:12 | 37.19382 | 125.07554 | 37051 ft | 503 kts | 88° |
| 2026-05-05 07:12 | 37.19547 | 125.16345 | 37045 ft | 503 kts | 88° |
| 2026-05-05 07:13 | 37.19705 | 125.25129 | 37043 ft | 503 kts | 89° |
| 2026-05-05 07:13 | 37.19857 | 125.33908 | 37044 ft | 504 kts | 89° |
| 2026-05-05 07:14 | 37.20003 | 125.42693 | 37054 ft | 504 kts | 89° |
| 2026-05-05 07:14 | 37.20140 | 125.51437 | 37049 ft | 504 kts | 89° |
| 2026-05-05 07:15 | 37.20256 | 125.60302 | 37069 ft | 505 kts | 89° |
| 2026-05-05 07:15 | 37.20366 | 125.69065 | 37062 ft | 505 kts | 89° |
| 2026-05-05 07:16 | 37.20475 | 125.77905 | 37049 ft | 505 kts | 89° |
| 2026-05-05 07:16 | 37.20573 | 125.86657 | 37066 ft | 505 kts | 89° |
| 2026-05-05 07:17 | 37.20666 | 125.95470 | 37080 ft | 505 kts | 89° |
| 2026-05-05 07:17 | 37.20755 | 126.04310 | 37080 ft | 506 kts | 89° |
| 2026-05-05 07:18 | 37.20838 | 126.13136 | 37081 ft | 506 kts | 89° |
| 2026-05-05 07:18 | 37.20915 | 126.21967 | 37082 ft | 506 kts | 89° |
| 2026-05-05 07:19 | 37.20986 | 126.30812 | 37079 ft | 507 kts | 90° |
| 2026-05-05 07:19 | 37.21050 | 126.39613 | 37084 ft | 507 kts | 90° |
| 2026-05-05 07:20 | 37.21108 | 126.48458 | 37088 ft | 507 kts | 90° |
| 2026-05-05 07:20 | 37.21162 | 126.57332 | 37096 ft | 508 kts | 90° |
| 2026-05-05 07:21 | 37.21213 | 126.66141 | 37079 ft | 509 kts | 90° |
| 2026-05-05 07:21 | 37.21260 | 126.75040 | 37077 ft | 509 kts | 90° |
| 2026-05-05 07:22 | 37.21299 | 126.83927 | 37082 ft | 509 kts | 90° |
| 2026-05-05 07:22 | 37.21379 | 126.92811 | 37086 ft | 507 kts | 86° |
| 2026-05-05 07:22 | 37.21968 | 126.97172 | 37091 ft | 506 kts | 72° |
| 2026-05-05 07:23 | 37.23272 | 127.01258 | 37074 ft | 505 kts | 61° |
| 2026-05-05 07:23 | 37.25160 | 127.04951 | 37092 ft | 502 kts | 48° |
| 2026-05-05 07:23 | 37.27483 | 127.08203 | 37103 ft | 501 kts | 45° |
| 2026-05-05 07:24 | 37.32198 | 127.14592 | 37076 ft | 503 kts | 45° |
| 2026-05-05 07:24 | 37.36900 | 127.21148 | 37073 ft | 504 kts | 46° |
| 2026-05-05 07:25 | 37.41559 | 127.27759 | 37075 ft | 505 kts | 46° |
| 2026-05-05 07:25 | 37.46138 | 127.34473 | 37057 ft | 507 kts | 53° |
| 2026-05-05 07:26 | 37.49361 | 127.42368 | 37061 ft | 509 kts | 70° |
| 2026-05-05 07:26 | 37.50948 | 127.51056 | 37048 ft | 508 kts | 79° |
| 2026-05-05 07:27 | 37.52231 | 127.59798 | 37039 ft | 508 kts | 78° |
| 2026-05-05 07:27 | 37.53625 | 127.68471 | 37033 ft | 507 kts | 78° |
| 2026-05-05 07:28 | 37.55013 | 127.77177 | 37028 ft | 507 kts | 78° |
| 2026-05-05 07:28 | 37.56386 | 127.85900 | 37033 ft | 507 kts | 78° |
| 2026-05-05 07:29 | 37.57757 | 127.94638 | 37017 ft | 507 kts | 78° |
| 2026-05-05 07:29 | 37.59114 | 128.03311 | 37015 ft | 507 kts | 79° |
| 2026-05-05 07:30 | 37.60476 | 128.12064 | 37021 ft | 508 kts | 79° |
| 2026-05-05 07:30 | 37.62513 | 128.25208 | 37011 ft | 509 kts | 79° |
| 2026-05-05 07:31 | 37.63859 | 128.33929 | 37006 ft | 509 kts | 79° |
| 2026-05-05 07:31 | 37.65206 | 128.42712 | 37004 ft | 509 kts | 79° |
| 2026-05-05 07:32 | 37.66322 | 128.50009 | 36993 ft | 509 kts | 79° |
| 2026-05-05 07:32 | 37.67659 | 128.58793 | 36989 ft | 509 kts | 79° |
| 2026-05-05 07:33 | 37.69139 | 128.69002 | 36959 ft | 507 kts | 83° |
| 2026-05-05 07:33 | 37.68824 | 128.76380 | 36984 ft | 503 kts | 105° |
| 2026-05-05 07:34 | 37.67740 | 128.80510 | 36973 ft | 500 kts | 117° |
| 2026-05-05 07:34 | 37.66041 | 128.84319 | 36989 ft | 496 kts | 124° |
| 2026-05-05 07:34 | 37.62344 | 128.91716 | 36961 ft | 499 kts | 125° |
| 2026-05-05 07:35 | 37.58678 | 128.99186 | 36979 ft | 501 kts | 124° |
| 2026-05-05 07:35 | 37.55074 | 129.06666 | 36981 ft | 504 kts | 124° |
| 2026-05-05 07:36 | 37.51430 | 129.14241 | 36971 ft | 505 kts | 124° |
| 2026-05-05 07:36 | 37.47771 | 129.21819 | 36974 ft | 505 kts | 124° |
| 2026-05-05 07:37 | 37.44132 | 129.29332 | 36976 ft | 505 kts | 124° |
| 2026-05-05 07:37 | 37.40470 | 129.36886 | 36971 ft | 505 kts | 124° |
| 2026-05-05 07:38 | 37.36811 | 129.44428 | 36990 ft | 504 kts | 125° |
| 2026-05-05 07:38 | 37.33154 | 129.51952 | 36999 ft | 504 kts | 125° |
| 2026-05-05 07:39 | 37.29511 | 129.59432 | 36978 ft | 504 kts | 125° |
| 2026-05-05 07:39 | 37.25848 | 129.66936 | 37008 ft | 504 kts | 125° |
| 2026-05-05 07:40 | 37.22178 | 129.74438 | 37014 ft | 504 kts | 125° |
| 2026-05-05 07:40 | 37.18498 | 129.81948 | 36998 ft | 505 kts | 126° |
| 2026-05-05 07:41 | 37.14803 | 129.89451 | 37022 ft | 505 kts | 126° |
| 2026-05-05 07:41 | 37.11094 | 129.96936 | 37028 ft | 506 kts | 126° |
| 2026-05-05 07:42 | 37.07393 | 130.04396 | 37018 ft | 507 kts | 126° |
| 2026-05-05 07:42 | 37.03666 | 130.11901 | 37029 ft | 507 kts | 126° |
| 2026-05-05 07:43 | 36.99927 | 130.19403 | 37030 ft | 508 kts | 126° |
| 2026-05-05 07:43 | 36.96185 | 130.26912 | 37032 ft | 508 kts | 127° |
| 2026-05-05 07:44 | 36.92458 | 130.34371 | 37043 ft | 509 kts | 127° |
| 2026-05-05 07:44 | 36.88695 | 130.41878 | 37055 ft | 509 kts | 127° |
| 2026-05-05 07:45 | 36.84934 | 130.49370 | 37039 ft | 510 kts | 127° |
| 2026-05-05 07:45 | 36.81158 | 130.56875 | 37063 ft | 510 kts | 127° |
| 2026-05-05 07:46 | 36.77381 | 130.64367 | 37067 ft | 510 kts | 127° |
| 2026-05-05 07:46 | 36.73587 | 130.71869 | 37071 ft | 510 kts | 127° |
| 2026-05-05 07:47 | 36.69818 | 130.79293 | 37076 ft | 510 kts | 127° |
| 2026-05-05 07:47 | 36.66013 | 130.86779 | 37070 ft | 510 kts | 127° |
| 2026-05-05 07:48 | 36.62217 | 130.94237 | 37062 ft | 510 kts | 128° |
| 2026-05-05 07:48 | 36.58419 | 131.01683 | 37088 ft | 509 kts | 128° |
| 2026-05-05 07:49 | 36.54633 | 131.09088 | 37094 ft | 509 kts | 128° |
| 2026-05-05 07:49 | 36.50827 | 131.16519 | 37084 ft | 509 kts | 128° |
| 2026-05-05 07:50 | 36.47012 | 131.23948 | 37088 ft | 510 kts | 128° |
| 2026-05-05 07:50 | 36.43222 | 131.31318 | 37093 ft | 510 kts | 128° |
| 2026-05-05 07:51 | 36.39485 | 131.38815 | 37086 ft | 515 kts | 121° |
| 2026-05-05 07:51 | 36.37216 | 131.47285 | 37105 ft | 526 kts | 104° |
| 2026-05-05 07:52 | 36.36694 | 131.56402 | 37099 ft | 531 kts | 94° |
| 2026-05-05 07:52 | 36.36526 | 131.65590 | 37103 ft | 532 kts | 94° |
| 2026-05-05 07:53 | 36.36307 | 131.74790 | 37129 ft | 533 kts | 95° |
| 2026-05-05 07:53 | 36.36025 | 131.83921 | 37101 ft | 533 kts | 95° |
| 2026-05-05 07:54 | 36.35714 | 131.93121 | 37107 ft | 533 kts | 95° |
| 2026-05-05 07:54 | 36.35397 | 132.02322 | 37091 ft | 533 kts | 95° |
| 2026-05-05 07:55 | 36.35078 | 132.11528 | 37111 ft | 534 kts | 96° |
| 2026-05-05 07:55 | 36.34754 | 132.20694 | 37121 ft | 534 kts | 96° |
| 2026-05-05 07:56 | 36.34422 | 132.29906 | 37113 ft | 535 kts | 96° |
| 2026-05-05 07:56 | 36.34082 | 132.39128 | 37118 ft | 535 kts | 96° |
| 2026-05-05 07:57 | 36.33735 | 132.48355 | 37120 ft | 535 kts | 96° |
| 2026-05-05 07:57 | 36.33382 | 132.57525 | 37122 ft | 536 kts | 96° |
| 2026-05-05 07:58 | 36.33020 | 132.66759 | 37122 ft | 537 kts | 96° |
| 2026-05-05 07:58 | 36.32650 | 132.76026 | 37132 ft | 538 kts | 96° |
| 2026-05-05 07:59 | 36.32271 | 132.85319 | 37132 ft | 540 kts | 96° |
| 2026-05-05 07:59 | 36.31884 | 132.94644 | 37129 ft | 541 kts | 96° |
| 2026-05-05 08:00 | 36.31489 | 133.03967 | 37132 ft | 541 kts | 96° |
| 2026-05-05 08:00 | 36.31088 | 133.13300 | 37134 ft | 541 kts | 96° |
| 2026-05-05 08:01 | 36.30683 | 133.22562 | 37134 ft | 541 kts | 96° |
| 2026-05-05 08:01 | 36.30267 | 133.31876 | 37133 ft | 541 kts | 97° |
| 2026-05-05 08:02 | 36.29845 | 133.41196 | 37120 ft | 541 kts | 97° |
| 2026-05-05 08:02 | 36.29414 | 133.50512 | 37134 ft | 541 kts | 97° |
| 2026-05-05 08:03 | 36.28977 | 133.59833 | 37142 ft | 541 kts | 97° |
| 2026-05-05 08:03 | 36.28535 | 133.69134 | 37122 ft | 541 kts | 97° |
| 2026-05-05 08:04 | 36.28084 | 133.78413 | 37146 ft | 542 kts | 97° |
| 2026-05-05 08:04 | 36.27604 | 133.87751 | 37145 ft | 543 kts | 97° |
| 2026-05-05 08:05 | 36.27113 | 133.97115 | 37146 ft | 544 kts | 97° |
| 2026-05-05 08:05 | 36.26624 | 134.06435 | 37153 ft | 545 kts | 97° |
| 2026-05-05 08:06 | 36.26128 | 134.15836 | 37148 ft | 547 kts | 97° |
| 2026-05-05 08:06 | 36.25637 | 134.25278 | 37149 ft | 548 kts | 97° |
| 2026-05-05 08:07 | 36.25140 | 134.34718 | 37144 ft | 548 kts | 97° |
| 2026-05-05 08:07 | 36.24642 | 134.44091 | 37142 ft | 549 kts | 96° |
| 2026-05-05 08:08 | 36.24881 | 134.53587 | 37154 ft | 554 kts | 85° |
| 2026-05-05 08:08 | 36.26306 | 134.63015 | 37152 ft | 556 kts | 79° |
| 2026-05-05 08:09 | 36.27966 | 134.72395 | 37143 ft | 556 kts | 79° |
| 2026-05-05 08:09 | 36.29574 | 134.81714 | 37151 ft | 556 kts | 79° |
| 2026-05-05 08:10 | 36.31143 | 134.91101 | 37153 ft | 556 kts | 79° |
| 2026-05-05 08:10 | 36.32692 | 135.00504 | 37155 ft | 557 kts | 79° |
| 2026-05-05 08:11 | 36.34239 | 135.09931 | 37160 ft | 557 kts | 79° |
| 2026-05-05 08:11 | 36.35783 | 135.19357 | 37152 ft | 558 kts | 79° |
| 2026-05-05 08:12 | 36.37324 | 135.28807 | 37155 ft | 558 kts | 79° |
| 2026-05-05 08:12 | 36.38857 | 135.38262 | 37174 ft | 558 kts | 79° |
| 2026-05-05 08:13 | 36.40372 | 135.47660 | 37127 ft | 558 kts | 80° |
| 2026-05-05 08:13 | 36.41888 | 135.57110 | 37154 ft | 558 kts | 80° |
| 2026-05-05 08:14 | 36.43400 | 135.66587 | 37163 ft | 559 kts | 80° |
| 2026-05-05 08:14 | 36.44894 | 135.76001 | 37167 ft | 559 kts | 80° |
| 2026-05-05 08:15 | 36.46392 | 135.85485 | 37162 ft | 559 kts | 80° |
| 2026-05-05 08:15 | 36.47883 | 135.94982 | 37169 ft | 559 kts | 80° |
| 2026-05-05 08:16 | 36.49365 | 136.04478 | 37169 ft | 558 kts | 80° |
| 2026-05-05 08:16 | 36.50830 | 136.13904 | 37162 ft | 558 kts | 80° |
| 2026-05-05 08:17 | 36.52290 | 136.23360 | 37165 ft | 558 kts | 80° |
| 2026-05-05 08:17 | 36.53750 | 136.32862 | 37162 ft | 559 kts | 80° |
| 2026-05-05 08:18 | 36.55202 | 136.42369 | 37164 ft | 559 kts | 80° |
| 2026-05-05 08:18 | 36.56638 | 136.51822 | 37171 ft | 559 kts | 80° |
| 2026-05-05 08:19 | 36.58076 | 136.61339 | 37170 ft | 560 kts | 80° |
| 2026-05-05 08:19 | 36.59511 | 136.70887 | 37156 ft | 560 kts | 81° |
| 2026-05-05 08:20 | 36.60938 | 136.80442 | 37163 ft | 561 kts | 81° |
| 2026-05-05 08:20 | 36.62352 | 136.89947 | 37150 ft | 562 kts | 81° |
| 2026-05-05 08:21 | 36.63764 | 136.99553 | 37140 ft | 563 kts | 81° |
| 2026-05-05 08:21 | 36.64907 | 137.07533 | 37135 ft | 564 kts | 81° |
| 2026-05-05 08:22 | 36.66273 | 137.17174 | 37141 ft | 565 kts | 81° |
| 2026-05-05 08:22 | 36.67635 | 137.26808 | 37133 ft | 564 kts | 81° |
| 2026-05-05 08:23 | 36.68990 | 137.36424 | 37132 ft | 563 kts | 81° |
| 2026-05-05 08:23 | 36.70339 | 137.46047 | 37167 ft | 563 kts | 81° |
| 2026-05-05 08:24 | 36.71679 | 137.55683 | 37168 ft | 563 kts | 81° |
| 2026-05-05 08:24 | 36.73000 | 137.65239 | 37157 ft | 562 kts | 81° |
| 2026-05-05 08:25 | 36.74324 | 137.74847 | 37168 ft | 562 kts | 81° |
| 2026-05-05 08:25 | 36.75640 | 137.84448 | 37174 ft | 561 kts | 82° |
| 2026-05-05 08:26 | 36.76934 | 137.93990 | 37170 ft | 561 kts | 81° |
| 2026-05-05 08:26 | 36.78229 | 138.03597 | 37166 ft | 562 kts | 81° |
| 2026-05-05 08:27 | 36.79534 | 138.13220 | 37167 ft | 562 kts | 81° |
| 2026-05-05 08:27 | 36.80865 | 138.22843 | 37171 ft | 562 kts | 81° |
| 2026-05-05 08:28 | 36.82196 | 138.32486 | 37161 ft | 563 kts | 82° |
| 2026-05-05 08:28 | 36.83513 | 138.42117 | 37177 ft | 563 kts | 81° |
| 2026-05-05 08:29 | 36.84811 | 138.51700 | 37158 ft | 563 kts | 82° |
| 2026-05-05 08:30 | 36.86717 | 138.66126 | 37236 ft | 559 kts | 82° |
| 2026-05-05 08:30 | 36.87977 | 138.75736 | 37158 ft | 560 kts | 82° |
| 2026-05-05 08:31 | 36.89230 | 138.85345 | 37181 ft | 562 kts | 82° |
| 2026-05-05 08:31 | 36.90484 | 138.94990 | 37223 ft | 564 kts | 82° |
| 2026-05-05 08:32 | 36.91704 | 139.04650 | 37184 ft | 567 kts | 83° |
| 2026-05-05 08:32 | 36.92969 | 139.14382 | 37195 ft | 566 kts | 81° |
| 2026-05-05 08:33 | 36.94261 | 139.24074 | 37167 ft | 562 kts | 82° |
| 2026-05-05 08:33 | 36.95506 | 139.33706 | 37181 ft | 560 kts | 82° |
| 2026-05-05 08:34 | 36.96741 | 139.43356 | 37191 ft | 564 kts | 82° |
| 2026-05-05 08:34 | 36.97974 | 139.53055 | 37209 ft | 569 kts | 82° |
| 2026-05-05 08:35 | 36.99204 | 139.62856 | 37199 ft | 572 kts | 82° |
| 2026-05-05 08:35 | 36.99813 | 139.67775 | 37000 ft | 572 kts | 82° |
| 2026-05-05 08:35 | 37.00426 | 139.72726 | 36232 ft | 576 kts | 82° |
| 2026-05-05 08:35 | 37.01038 | 139.77677 | 35551 ft | 575 kts | 82° |
| 2026-05-05 08:36 | 37.01645 | 139.82610 | 34912 ft | 573 kts | 82° |
| 2026-05-05 08:36 | 37.02240 | 139.87505 | 34483 ft | 566 kts | 82° |
| 2026-05-05 08:36 | 37.02827 | 139.92357 | 34045 ft | 561 kts | 82° |
| 2026-05-05 08:36 | 37.03411 | 139.97164 | 33533 ft | 556 kts | 82° |
| 2026-05-05 08:37 | 37.03984 | 140.01929 | 33098 ft | 549 kts | 82° |
| 2026-05-05 08:37 | 37.04561 | 140.06576 | 32657 ft | 543 kts | 81° |
| 2026-05-05 08:37 | 37.05152 | 140.11231 | 32228 ft | 537 kts | 81° |
| 2026-05-05 08:37 | 37.05738 | 140.15834 | 31791 ft | 531 kts | 81° |
| 2026-05-05 08:38 | 37.06312 | 140.20378 | 31382 ft | 526 kts | 81° |
| 2026-05-05 08:38 | 37.06873 | 140.24877 | 30968 ft | 520 kts | 81° |
| 2026-05-05 08:38 | 37.07416 | 140.29352 | 30555 ft | 515 kts | 82° |
| 2026-05-05 08:38 | 37.07940 | 140.33773 | 30120 ft | 510 kts | 82° |
| 2026-05-05 08:39 | 37.08455 | 140.38142 | 29626 ft | 504 kts | 81° |
| 2026-05-05 08:39 | 37.08960 | 140.42412 | 29205 ft | 498 kts | 81° |
| 2026-05-05 08:39 | 37.09465 | 140.46673 | 28771 ft | 492 kts | 81° |
| 2026-05-05 08:39 | 37.09964 | 140.50895 | 28314 ft | 486 kts | 81° |
| 2026-05-05 08:40 | 37.10360 | 140.55054 | 27901 ft | 477 kts | 89° |
| 2026-05-05 08:40 | 37.10034 | 140.59142 | 27509 ft | 467 kts | 107° |
| 2026-05-05 08:40 | 37.08974 | 140.62941 | 27116 ft | 457 kts | 120° |
| 2026-05-05 08:40 | 37.07325 | 140.66269 | 26704 ft | 442 kts | 133° |
| 2026-05-05 08:41 | 37.05435 | 140.69281 | 26321 ft | 438 kts | 132° |
| 2026-05-05 08:41 | 37.03601 | 140.72315 | 25913 ft | 434 kts | 131° |
| 2026-05-05 08:41 | 37.01594 | 140.75021 | 25483 ft | 418 kts | 149° |
| 2026-05-05 08:41 | 36.99124 | 140.76660 | 25114 ft | 400 kts | 168° |
| 2026-05-05 08:42 | 36.96438 | 140.77329 | 24682 ft | 389 kts | 182° |
| 2026-05-05 08:42 | 36.93755 | 140.77301 | 24236 ft | 382 kts | 194° |
| 2026-05-05 08:42 | 36.91192 | 140.76513 | 23788 ft | 380 kts | 203° |
| 2026-05-05 08:42 | 36.88634 | 140.75492 | 23265 ft | 389 kts | 203° |
| 2026-05-05 08:43 | 36.86049 | 140.74447 | 22764 ft | 390 kts | 203° |
| 2026-05-05 08:43 | 36.83504 | 140.73431 | 22304 ft | 388 kts | 203° |
| 2026-05-05 08:43 | 36.80934 | 140.72422 | 21839 ft | 385 kts | 202° |
| 2026-05-05 08:43 | 36.78370 | 140.71428 | 21379 ft | 383 kts | 202° |
| 2026-05-05 08:44 | 36.75837 | 140.70454 | 20950 ft | 380 kts | 202° |
| 2026-05-05 08:44 | 36.73314 | 140.69488 | 20516 ft | 377 kts | 202° |
| 2026-05-05 08:44 | 36.70806 | 140.68530 | 20074 ft | 375 kts | 202° |
| 2026-05-05 08:44 | 36.68323 | 140.67583 | 19645 ft | 373 kts | 202° |
| 2026-05-05 08:45 | 36.65875 | 140.66649 | 19216 ft | 371 kts | 202° |
| 2026-05-05 08:45 | 36.63407 | 140.65707 | 18787 ft | 369 kts | 202° |
| 2026-05-05 08:45 | 36.60955 | 140.64774 | 18305 ft | 368 kts | 202° |
| 2026-05-05 08:45 | 36.58509 | 140.63841 | 17843 ft | 366 kts | 202° |
| 2026-05-05 08:46 | 36.56082 | 140.62920 | 17402 ft | 364 kts | 201° |
| 2026-05-05 08:46 | 36.53662 | 140.62001 | 16933 ft | 361 kts | 201° |
| 2026-05-05 08:46 | 36.51267 | 140.61088 | 16529 ft | 359 kts | 201° |
| 2026-05-05 08:46 | 36.48913 | 140.60190 | 16118 ft | 356 kts | 201° |
| 2026-05-05 08:47 | 36.46547 | 140.59289 | 15692 ft | 354 kts | 201° |
| 2026-05-05 08:47 | 36.44198 | 140.58394 | 15281 ft | 352 kts | 201° |
| 2026-05-05 08:47 | 36.41860 | 140.57505 | 14839 ft | 351 kts | 201° |
| 2026-05-05 08:47 | 36.39520 | 140.56615 | 14428 ft | 350 kts | 201° |
| 2026-05-05 08:48 | 36.37197 | 140.55732 | 14000 ft | 349 kts | 201° |
| 2026-05-05 08:48 | 36.34869 | 140.54928 | 13380 ft | 348 kts | 192° |
| 2026-05-05 08:48 | 36.32442 | 140.55067 | 12896 ft | 354 kts | 167° |
| 2026-05-05 08:48 | 36.30246 | 140.56356 | 12480 ft | 356 kts | 146° |
| 2026-05-05 08:49 | 36.28458 | 140.58468 | 12077 ft | 354 kts | 133° |
| 2026-05-05 08:49 | 36.26815 | 140.60733 | 11657 ft | 352 kts | 133° |
| 2026-05-05 08:49 | 36.25167 | 140.62966 | 11281 ft | 351 kts | 134° |
| 2026-05-05 08:49 | 36.23525 | 140.65156 | 11119 ft | 341 kts | 134° |
| 2026-05-05 08:50 | 36.21917 | 140.67291 | 10856 ft | 336 kts | 134° |
| 2026-05-05 08:50 | 36.20330 | 140.69395 | 10552 ft | 333 kts | 134° |
| 2026-05-05 08:50 | 36.18774 | 140.71459 | 10256 ft | 330 kts | 134° |
| 2026-05-05 08:50 | 36.17215 | 140.73526 | 9933 ft | 327 kts | 134° |
| 2026-05-05 08:51 | 36.15682 | 140.75556 | 9679 ft | 321 kts | 134° |
| 2026-05-05 08:51 | 36.14165 | 140.77562 | 9392 ft | 317 kts | 134° |
| 2026-05-05 08:51 | 36.12692 | 140.79479 | 9053 ft | 295 kts | 139° |
| 2026-05-05 08:51 | 36.11115 | 140.80916 | 9039 ft | 272 kts | 151° |
| 2026-05-05 08:52 | 36.09518 | 140.82061 | 9025 ft | 258 kts | 152° |
| 2026-05-05 08:52 | 36.07982 | 140.83134 | 9014 ft | 256 kts | 153° |
| 2026-05-05 08:52 | 36.06436 | 140.84232 | 9019 ft | 256 kts | 152° |
| 2026-05-05 08:52 | 36.04903 | 140.85341 | 9027 ft | 258 kts | 151° |
| 2026-05-05 08:53 | 36.03367 | 140.86466 | 9025 ft | 260 kts | 151° |
| 2026-05-05 08:53 | 36.01828 | 140.87601 | 9022 ft | 260 kts | 152° |
| 2026-05-05 08:53 | 36.00271 | 140.88749 | 9035 ft | 260 kts | 152° |
| 2026-05-05 08:53 | 35.98708 | 140.89850 | 9029 ft | 256 kts | 159° |
| 2026-05-05 08:54 | 35.97054 | 140.90646 | 9033 ft | 254 kts | 164° |
| 2026-05-05 08:54 | 35.95390 | 140.91356 | 9041 ft | 253 kts | 164° |
| 2026-05-05 08:54 | 35.93724 | 140.92085 | 9038 ft | 254 kts | 163° |
| 2026-05-05 08:54 | 35.92077 | 140.92823 | 9028 ft | 255 kts | 162° |
| 2026-05-05 08:55 | 35.90411 | 140.93578 | 9036 ft | 255 kts | 162° |
| 2026-05-05 08:55 | 35.88737 | 140.94333 | 9036 ft | 254 kts | 165° |
| 2026-05-05 08:55 | 35.87031 | 140.94576 | 9027 ft | 243 kts | 188° |
| 2026-05-05 08:55 | 35.85322 | 140.94395 | 9064 ft | 251 kts | 188° |
| 2026-05-05 08:56 | 35.83561 | 140.94251 | 9049 ft | 255 kts | 187° |
| 2026-05-05 08:56 | 35.81794 | 140.94124 | 9039 ft | 254 kts | 187° |
| 2026-05-05 08:56 | 35.80036 | 140.94000 | 9038 ft | 252 kts | 187° |
| 2026-05-05 08:56 | 35.78282 | 140.93882 | 9032 ft | 251 kts | 186° |
| 2026-05-05 08:57 | 35.76557 | 140.93702 | 9019 ft | 243 kts | 199° |
| 2026-05-05 08:57 | 35.75071 | 140.92894 | 9056 ft | 238 kts | 214° |
| 2026-05-05 08:57 | 35.73586 | 140.91910 | 9050 ft | 246 kts | 211° |
| 2026-05-05 08:57 | 35.72062 | 140.90962 | 9047 ft | 247 kts | 210° |
| 2026-05-05 08:58 | 35.70582 | 140.90046 | 9035 ft | 245 kts | 211° |
| 2026-05-05 08:58 | 35.69060 | 140.89028 | 9017 ft | 237 kts | 223° |
| 2026-05-05 08:58 | 35.68126 | 140.87470 | 9030 ft | 226 kts | 256° |
| 2026-05-05 08:58 | 35.67996 | 140.85557 | 8957 ft | 229 kts | 280° |
| 2026-05-05 08:59 | 35.68495 | 140.83715 | 8740 ft | 231 kts | 301° |
| 2026-05-05 08:59 | 35.69427 | 140.82117 | 8577 ft | 229 kts | 308° |
| 2026-05-05 08:59 | 35.70417 | 140.80619 | 8396 ft | 226 kts | 309° |
| 2026-05-05 08:59 | 35.71397 | 140.79155 | 8205 ft | 222 kts | 309° |
| 2026-05-05 09:00 | 35.72373 | 140.77690 | 8043 ft | 221 kts | 309° |
| 2026-05-05 09:00 | 35.73351 | 140.76212 | 7881 ft | 224 kts | 309° |
| 2026-05-05 09:00 | 35.74331 | 140.74721 | 7716 ft | 223 kts | 308° |
| 2026-05-05 09:00 | 35.75298 | 140.73243 | 7533 ft | 220 kts | 308° |
| 2026-05-05 09:01 | 35.76255 | 140.71772 | 7372 ft | 219 kts | 308° |
| 2026-05-05 09:01 | 35.77204 | 140.70311 | 7206 ft | 217 kts | 308° |
| 2026-05-05 09:01 | 35.78146 | 140.68856 | 7041 ft | 217 kts | 308° |
| 2026-05-05 09:01 | 35.79071 | 140.67425 | 6870 ft | 217 kts | 308° |
| 2026-05-05 09:02 | 35.80007 | 140.65977 | 6726 ft | 215 kts | 308° |
| 2026-05-05 09:02 | 35.80945 | 140.64522 | 6533 ft | 217 kts | 308° |
| 2026-05-05 09:02 | 35.81889 | 140.63064 | 6392 ft | 217 kts | 308° |
| 2026-05-05 09:02 | 35.82826 | 140.61609 | 6182 ft | 217 kts | 308° |
| 2026-05-05 09:03 | 35.83764 | 140.60153 | 6024 ft | 216 kts | 307° |
| 2026-05-05 09:03 | 35.84708 | 140.58707 | 5885 ft | 218 kts | 308° |
| 2026-05-05 09:03 | 35.85676 | 140.57241 | 5758 ft | 221 kts | 307° |
| 2026-05-05 09:03 | 35.86651 | 140.55763 | 5639 ft | 223 kts | 307° |
| 2026-05-05 09:04 | 35.87622 | 140.54288 | 5469 ft | 221 kts | 308° |
| 2026-05-05 09:04 | 35.88589 | 140.52818 | 5357 ft | 219 kts | 307° |
| 2026-05-05 09:04 | 35.89536 | 140.51378 | 5240 ft | 219 kts | 306° |
| 2026-05-05 09:04 | 35.90495 | 140.49920 | 5085 ft | 219 kts | 306° |
| 2026-05-05 09:05 | 35.91456 | 140.48455 | 4961 ft | 219 kts | 307° |
| 2026-05-05 09:05 | 35.92418 | 140.46989 | 4820 ft | 220 kts | 307° |
| 2026-05-05 09:05 | 35.93381 | 140.45523 | 4666 ft | 220 kts | 306° |
| 2026-05-05 09:05 | 35.94348 | 140.44050 | 4548 ft | 221 kts | 305° |
| 2026-05-05 09:06 | 35.95315 | 140.42574 | 4398 ft | 222 kts | 307° |
| 2026-05-05 09:06 | 35.96283 | 140.41089 | 4264 ft | 221 kts | 304° |
| 2026-05-05 09:06 | 35.97208 | 140.39567 | 4139 ft | 222 kts | 302° |
| 2026-05-05 09:06 | 35.98123 | 140.38044 | 4009 ft | 223 kts | 302° |
| 2026-05-05 09:07 | 35.99053 | 140.36496 | 3859 ft | 224 kts | 303° |
| 2026-05-05 09:07 | 35.99969 | 140.34977 | 3740 ft | 217 kts | 303° |
| 2026-05-05 09:07 | 36.00675 | 140.33393 | 3557 ft | 204 kts | 275° |
| 2026-05-05 09:07 | 36.00557 | 140.31715 | 3513 ft | 196 kts | 246° |
| 2026-05-05 09:08 | 36.00171 | 140.30706 | 3443 ft | 197 kts | 235° |
| 2026-05-05 09:08 | 35.99395 | 140.29340 | 3294 ft | 191 kts | 231° |
| 2026-05-05 09:08 | 35.98634 | 140.28069 | 3224 ft | 180 kts | 230° |
| 2026-05-05 09:08 | 35.97768 | 140.26998 | 3068 ft | 176 kts | 202° |
| 2026-05-05 09:09 | 35.96595 | 140.26887 | 2994 ft | 173 kts | 165° |
| 2026-05-05 09:09 | 35.95459 | 140.27419 | 2929 ft | 178 kts | 160° |
| 2026-05-05 09:09 | 35.94317 | 140.28023 | 2758 ft | 178 kts | 159° |
| 2026-05-05 09:09 | 35.93216 | 140.28654 | 2575 ft | 170 kts | 156° |
| 2026-05-05 09:10 | 35.92209 | 140.29335 | 2420 ft | 159 kts | 153° |
| 2026-05-05 09:10 | 35.91296 | 140.29989 | 2321 ft | 149 kts | 152° |
| 2026-05-05 09:10 | 35.90391 | 140.30643 | 2191 ft | 151 kts | 152° |
| 2026-05-05 09:10 | 35.89491 | 140.31297 | 2056 ft | 149 kts | 152° |
| 2026-05-05 09:11 | 35.88606 | 140.31940 | 1937 ft | 146 kts | 152° |
| 2026-05-05 09:11 | 35.87735 | 140.32574 | 1816 ft | 148 kts | 152° |
| 2026-05-05 09:11 | 35.86848 | 140.33219 | 1589 ft | 146 kts | 152° |
| 2026-05-05 09:11 | 35.85980 | 140.33851 | 1406 ft | 144 kts | 151° |
| 2026-05-05 09:12 | 35.85124 | 140.34471 | 1180 ft | 138 kts | 152° |
| 2026-05-05 09:12 | 35.84316 | 140.35056 | 1024 ft | 134 kts | 150° |
| 2026-05-05 09:12 | 35.83498 | 140.35651 | 828 ft | 137 kts | 148° |
| 2026-05-05 09:12 | 35.82681 | 140.36244 | 673 ft | 138 kts | 150° |
| 2026-05-05 09:13 | 35.81860 | 140.36840 | 480 ft | 136 kts | 149° |
| 2026-05-05 09:13 | 35.81050 | 140.37428 | 314 ft | 131 kts | 149° |
| 2026-05-05 09:13 | 35.80252 | 140.38004 | 155 ft | 129 kts | 148° |
| 2026-05-05 09:13 | 35.79567 | 140.38500 | 143 ft | 95 kts | 150° |
| 2026-05-05 09:14 | 35.79130 | 140.38815 | 146 ft | 50 kts | 149° |
| 2026-05-05 09:14 | 35.78893 | 140.38987 | 143 ft | 34 kts | 149° |
| 2026-05-05 09:14 | 35.78710 | 140.39071 | 143 ft | 24 kts | 173° |
| 2026-05-05 09:14 | 35.78549 | 140.39095 | 147 ft | 23 kts | 169° |
| 2026-05-05 09:15 | 35.78396 | 140.39137 | 148 ft | 22 kts | 167° |
| 2026-05-05 09:15 | 35.78246 | 140.39180 | 148 ft | 20 kts | 166° |
| 2026-05-05 09:15 | 35.78144 | 140.39186 | 149 ft | 12 kts | 215° |
| 2026-05-05 09:15 | 35.78085 | 140.39113 | 149 ft | 12 kts | 194° |
| 2026-05-05 09:16 | 35.78006 | 140.39153 | 149 ft | 12 kts | 151° |
| 2026-05-05 09:16 | 35.77952 | 140.39233 | 149 ft | 12 kts | 116° |
| 2026-05-05 09:16 | 35.77911 | 140.39335 | 149 ft | 15 kts | 116° |
| 2026-05-05 09:16 | 35.77860 | 140.39459 | 149 ft | 17 kts | 119° |
| 2026-05-05 09:17 | 35.77768 | 140.39543 | 149 ft | 17 kts | 149° |
| 2026-05-05 09:17 | 35.77667 | 140.39617 | 149 ft | 17 kts | 149° |
| 2026-05-05 09:17 | 35.77568 | 140.39688 | 149 ft | 17 kts | 149° |
| 2026-05-05 09:17 | 35.77468 | 140.39761 | 149 ft | 17 kts | 150° |
| 2026-05-05 09:18 | 35.77367 | 140.39833 | 149 ft | 17 kts | 149° |
| 2026-05-05 09:18 | 35.77267 | 140.39905 | 149 ft | 17 kts | 149° |
| 2026-05-05 09:18 | 35.77167 | 140.39978 | 149 ft | 17 kts | 149° |
| 2026-05-05 09:18 | 35.77058 | 140.39993 | 149 ft | 17 kts | 201° |
| 2026-05-05 09:19 | 35.76952 | 140.39935 | 149 ft | 15 kts | 205° |
| 2026-05-05 09:19 | 35.76877 | 140.39898 | 149 ft | 9 kts | 197° |
| 2026-05-05 09:19 | 35.76859 | 140.39827 | 149 ft | 10 kts | 267° |
| 2026-05-05 09:19 | 35.76810 | 140.39781 | 149 ft | 10 kts | 193° |
| 2026-05-05 09:20 | 35.76748 | 140.39735 | 149 ft | 12 kts | 221° |
| 2026-05-05 09:20 | 35.76671 | 140.39659 | 149 ft | 16 kts | 207° |
| 2026-05-05 09:20 | 35.76557 | 140.39596 | 149 ft | 19 kts | 204° |
| 2026-05-05 09:20 | 35.76438 | 140.39530 | 149 ft | 19 kts | 204° |
| 2026-05-05 09:21 | 35.76318 | 140.39465 | 149 ft | 19 kts | 204° |
| 2026-05-05 09:21 | 35.76199 | 140.39399 | 149 ft | 19 kts | 204° |
| 2026-05-05 09:21 | 35.76080 | 140.39333 | 149 ft | 19 kts | 205° |
| 2026-05-05 09:21 | 35.75961 | 140.39265 | 149 ft | 19 kts | 204° |
| 2026-05-05 09:22 | 35.75845 | 140.39196 | 149 ft | 19 kts | 216° |
| 2026-05-05 09:22 | 35.75773 | 140.39063 | 151 ft | 19 kts | 239° |
| 2026-05-05 09:22 | 35.75707 | 140.38928 | 151 ft | 17 kts | 239° |
| 2026-05-05 09:22 | 35.75651 | 140.38809 | 151 ft | 16 kts | 240° |
| 2026-05-05 09:23 | 35.75603 | 140.38700 | 151 ft | 14 kts | 253° |
| 2026-05-05 09:23 | 35.75598 | 140.38589 | 151 ft | 13 kts | 271° |
| 2026-05-05 09:23 | 35.75651 | 140.38509 | 151 ft | 14 kts | 327° |
| 2026-05-05 09:23 | 35.75742 | 140.38441 | 151 ft | 18 kts | 328° |
| 2026-05-05 09:24 | 35.75860 | 140.38355 | 151 ft | 21 kts | 330° |
| 2026-05-05 09:24 | 35.75984 | 140.38265 | 151 ft | 21 kts | 329° |
| 2026-05-05 09:24 | 35.76110 | 140.38177 | 150 ft | 21 kts | 330° |
| 2026-05-05 09:24 | 35.76233 | 140.38085 | 150 ft | 21 kts | 329° |
| 2026-05-05 09:25 | 35.76358 | 140.37995 | 150 ft | 21 kts | 329° |
| 2026-05-05 09:25 | 35.76479 | 140.37907 | 150 ft | 18 kts | 330° |
| 2026-05-05 09:25 | 35.76559 | 140.37851 | 150 ft | 10 kts | 330° |
| 2026-05-05 09:25 | 35.76615 | 140.37881 | 150 ft | 10 kts | 57° |
| 2026-05-05 09:26 | 35.76653 | 140.37955 | 151 ft | 10 kts | 58° |
| 2026-05-05 09:26 | 35.76689 | 140.38030 | 151 ft | 10 kts | 59° |
| 2026-05-05 09:26 | 35.76725 | 140.38105 | 151 ft | 9 kts | 59° |
| 2026-05-05 09:26 | 35.76734 | 140.38174 | 151 ft | 8 kts | 98° |
| 2026-05-05 09:27 | 35.76724 | 140.38233 | 151 ft | 7 kts | 102° |
| 2026-05-05 09:27 | 35.76715 | 140.38278 | 151 ft | 3 kts | 103° |
| 2026-05-05 09:27 | 35.76712 | 140.38297 | 151 ft | 2 kts | 103° |
| 2026-05-05 09:27 | 35.76709 | 140.38314 | 151 ft | 1 kts | 103° |
| 2026-05-05 09:28 | 35.76708 | 140.38319 | 151 ft | 0 kts | 103° |